Observation data for Bootleg on 01/20/2019      Previous  Date  Next       Current Mesonet Observations  Soil Data  Daily Summary Page  Observations in Plain Language
KBO1 200600Z 17013KT 00/M03 A3024 RMK A01 T00021030  RH  079%=      5-min Rain = 0
KBO1 200601Z 17014KT 00/M03 A3024 RMK A01 T00031030  RH  079%=      5-min Rain = 0
KBO1 200602Z 17014KT 00/M03 A3024 RMK A01 T00031030  RH  079%=      5-min Rain = 0
KBO1 200603Z 18013KT 00/M03 A3024 RMK A01 T00041030  RH  078%=      5-min Rain = 0
KBO1 200604Z 18013KT 00/M03 A3024 RMK A01 T00041030  RH  078%=      5-min Rain = 0
KBO1 200605Z 18012KT 00/M03 A3024 RMK A01 T00041030  RH  078%=      5-min Rain = 0
KBO1 200606Z 18012KT 00/M03 A3024 RMK A01 T00041030  RH  078%=      5-min Rain = 0
KBO1 200607Z 18012KT 00/M03 A3024 RMK A01 T00041030  RH  078%=      5-min Rain = 0
KBO1 200608Z 18014KT 00/M03 A3024 RMK A01 T00031030  RH  078%=      5-min Rain = 0
KBO1 200609Z 18014KT 00/M03 A3024 RMK A01 T00031030  RH  078%=      5-min Rain = 0
KBO1 200610Z 18014KT 00/M03 A3024 RMK A01 T00041030  RH  078%=      5-min Rain = 0
KBO1 200611Z 18013KT 00/M03 A3024 RMK A01 T00041030  RH  078%=      5-min Rain = 0
KBO1 200612Z 18013KT 00/M03 A3024 RMK A01 T00041030  RH  078%=      5-min Rain = 0
KBO1 200613Z 18013KT 01/M03 A3024 RMK A01 T00051030  RH  078%=      5-min Rain = 0
KBO1 200614Z 18013KT 01/M03 A3024 RMK A01 T00051030  RH  078%=      5-min Rain = 0
KBO1 200615Z 18012KT 00/M03 A3023 RMK A01 T00041030  RH  078%=      5-min Rain = 0
KBO1 200616Z 18012KT 00/M03 A3023 RMK A01 T00041030  RH  078%=      5-min Rain = 0
KBO1 200617Z 18012KT 00/M03 A3023 RMK A01 T00041030  RH  078%=      5-min Rain = 0
KBO1 200618Z 18012KT 00/M03 A3023 RMK A01 T00041031  RH  078%=      5-min Rain = 0
KBO1 200619Z 18014KT 00/M03 A3023 RMK A01 T00031031  RH  078%=      5-min Rain = 0
KBO1 200620Z 18013KT 00/M03 A3023 RMK A01 T00031031  RH  078%=      5-min Rain = 0
KBO1 200621Z 18013KT 00/M03 A3023 RMK A01 T00031031  RH  078%=      5-min Rain = 0
KBO1 200622Z 18013KT 00/M03 A3023 RMK A01 T00021031  RH  078%=      5-min Rain = 0
KBO1 200623Z 18012KT 00/M03 A3023 RMK A01 T00021032  RH  078%=      5-min Rain = 0
KBO1 200624Z 18013KT 00/M03 A3023 RMK A01 T00021031  RH  079%=      5-min Rain = 0
KBO1 200625Z 18013KT 00/M03 A3023 RMK A01 T00021031  RH  078%=      5-min Rain = 0
KBO1 200626Z 18013KT 00/M03 A3023 RMK A01 T00021032  RH  078%=      5-min Rain = 0
KBO1 200627Z 18011KT 00/M03 A3023 RMK A01 T00021031  RH  078%=      5-min Rain = 0
KBO1 200628Z 18013KT 00/M03 A3023 RMK A01 T00021032  RH  078%=      5-min Rain = 0
KBO1 200629Z 18012KT 00/M03 A3023 RMK A01 T00031031  RH  078%=      5-min Rain = 0
KBO1 200630Z 18011KT 00/M03 A3023 RMK A01 T00031032  RH  078%=      5-min Rain = 0
KBO1 200631Z 17013KT 00/M03 A3023 RMK A01 T00021032  RH  078%=      5-min Rain = 0
KBO1 200632Z 18013KT 00/M03 A3023 RMK A01 T00021032  RH  078%=      5-min Rain = 0
KBO1 200633Z 18013KT 00/M03 A3023 RMK A01 T00021032  RH  078%=      5-min Rain = 0
KBO1 200634Z 18012KT 00/M03 A3023 RMK A01 T00021033  RH  077%=      5-min Rain = 0
KBO1 200635Z 18012KT 00/M03 A3023 RMK A01 T00031033  RH  077%=      5-min Rain = 0
KBO1 200636Z 18011KT 00/M03 A3023 RMK A01 T00031033  RH  077%=      5-min Rain = 0
KBO1 200637Z 18011KT 00/M03 A3023 RMK A01 T00031033  RH  077%=      5-min Rain = 0
KBO1 200638Z 18010KT 00/M03 A3023 RMK A01 T00021033  RH  077%=      5-min Rain = 0
KBO1 200639Z 18010KT 00/M03 A3023 RMK A01 T00011033  RH  078%=      5-min Rain = 0
KBO1 200640Z 18011KT 00/03 A3023 RMK A01 T00000-34  RH  078%=      5-min Rain = 0
KBO1 200641Z 17011KT 00/03 A3023 RMK A01 T00-00-33  RH  078%=      5-min Rain = 0
KBO1 200642Z 18011KT 00/03 A3023 RMK A01 T00-00-33  RH  078%=      5-min Rain = 0
KBO1 200643Z 18011KT M00/M03 A3024 RMK A01 T10011034  RH  079%=      5-min Rain = 0
KBO1 200644Z 18010KT M00/M03 A3024 RMK A01 T10011034  RH  079%=      5-min Rain = 0
KBO1 200645Z 18011KT M00/M03 A3024 RMK A01 T10021034  RH  079%=      5-min Rain = 0
KBO1 200646Z 18012KT M00/M03 A3024 RMK A01 T10021034  RH  079%=      5-min Rain = 0
KBO1 200647Z 18010KT M00/M03 A3024 RMK A01 T10021034  RH  079%=      5-min Rain = 0
KBO1 200648Z 18011KT M00/M03 A3024 RMK A01 T10021034  RH  079%=      5-min Rain = 0
KBO1 200649Z 18010KT M00/M03 A3024 RMK A01 T10021034  RH  079%=      5-min Rain = 0
KBO1 200650Z 18011KT M00/M03 A3024 RMK A01 T10031034  RH  079%=      5-min Rain = 0
KBO1 200651Z 18011KT M00/M03 A3024 RMK A01 T10031034  RH  080%=      5-min Rain = 0
KBO1 200652Z 18011KT M00/M03 A3024 RMK A01 T10031034  RH  080%=      5-min Rain = 0
KBO1 200653Z 18011KT M00/M03 A3023 RMK A01 T10031034  RH  080%=      5-min Rain = 0
KBO1 200654Z 18010KT M00/M04 A3023 RMK A01 T10041035  RH  080%=      5-min Rain = 0
KBO1 200655Z 18011KT M00/M04 A3023 RMK A01 T10041035  RH  080%=      5-min Rain = 0
KBO1 200656Z 18010KT M00/M04 A3023 RMK A01 T10041035  RH  080%=      5-min Rain = 0
KBO1 200657Z 18010KT M01/M04 A3023 RMK A01 T10051035  RH  080%=      5-min Rain = 0
KBO1 200658Z 17010KT M01/M04 A3023 RMK A01 T10051036  RH  080%=      5-min Rain = 0
KBO1 200659Z 17010KT M01/M04 A3023 RMK A01 T10051036  RH  080%=      5-min Rain = 0
KBO1 200700Z 17010KT M01/M04 A3023 RMK A01 T10051036  RH  080%=      5-min Rain = 0
KBO1 200701Z 17010KT M01/M04 A3023 RMK A01 T10051036  RH  080%=      5-min Rain = 0
KBO1 200702Z 17010KT M01/M04 A3023 RMK A01 T10061036  RH  080%=      5-min Rain = 0
KBO1 200703Z 17010KT M01/M04 A3023 RMK A01 T10061037  RH  080%=      5-min Rain = 0
KBO1 200704Z 17010KT M01/M04 A3023 RMK A01 T10071037  RH  080%=      5-min Rain = 0
KBO1 200705Z 17010KT M01/M04 A3023 RMK A01 T10071037  RH  080%=      5-min Rain = 0
KBO1 200706Z 17010KT M01/M04 A3023 RMK A01 T10081037  RH  080%=      5-min Rain = 0
KBO1 200707Z 17011KT M01/M04 A3023 RMK A01 T10081037  RH  081%=      5-min Rain = 0
KBO1 200708Z 17010KT M01/M04 A3023 RMK A01 T10091038  RH  081%=      5-min Rain = 0
KBO1 200709Z 17011KT M01/M04 A3023 RMK A01 T10091038  RH  081%=      5-min Rain = 0
KBO1 200710Z 17010KT M01/M04 A3023 RMK A01 T10101038  RH  081%=      5-min Rain = 0
KBO1 200711Z 17010KT M01/M04 A3023 RMK A01 T10101038  RH  081%=      5-min Rain = 0
KBO1 200712Z 17010KT M01/M04 A3023 RMK A01 T10101038  RH  081%=      5-min Rain = 0
KBO1 200713Z 17010KT M01/M04 A3022 RMK A01 T10111039  RH  081%=      5-min Rain = 0
KBO1 200714Z 17011KT M01/M04 A3022 RMK A01 T10121039  RH  082%=      5-min Rain = 0
KBO1 200715Z 17011KT M01/M04 A3022 RMK A01 T10121039  RH  082%=      5-min Rain = 0
KBO1 200716Z 17011KT M01/M04 A3022 RMK A01 T10121039  RH  082%=      5-min Rain = 0
KBO1 200717Z 16010KT M01/M04 A3022 RMK A01 T10121039  RH  082%=      5-min Rain = 0
KBO1 200718Z 16010KT M01/M04 A3022 RMK A01 T10121039  RH  082%=      5-min Rain = 0
KBO1 200719Z 17010KT M01/M04 A3022 RMK A01 T10131040  RH  082%=      5-min Rain = 0
KBO1 200720Z 17010KT M01/M04 A3022 RMK A01 T10131040  RH  082%=      5-min Rain = 0
KBO1 200721Z 17010KT M01/M04 A3022 RMK A01 T10131040  RH  082%=      5-min Rain = 0
KBO1 200722Z 17010KT M01/M04 A3022 RMK A01 T10131040  RH  082%=      5-min Rain = 0
KBO1 200723Z 16009KT M01/M04 A3022 RMK A01 T10131040  RH  082%=      5-min Rain = 0
KBO1 200724Z 16010KT M01/M04 A3022 RMK A01 T10141041  RH  082%=      5-min Rain = 0
KBO1 200725Z 16009KT M02/M04 A3022 RMK A01 T10151041  RH  082%=      5-min Rain = 0
KBO1 200726Z 16009KT M02/M04 A3022 RMK A01 T10161042  RH  082%=      5-min Rain = 0
KBO1 200727Z 16009KT M02/M04 A3022 RMK A01 T10161042  RH  083%=      5-min Rain = 0
KBO1 200728Z 16009KT M02/M04 A3022 RMK A01 T10161042  RH  083%=      5-min Rain = 0
KBO1 200729Z 16009KT M02/M04 A3022 RMK A01 T10161042  RH  083%=      5-min Rain = 0
KBO1 200730Z 17009KT M02/M04 A3023 RMK A01 T10171042  RH  083%=      5-min Rain = 0
KBO1 200731Z 16009KT M02/M04 A3023 RMK A01 T10181042  RH  083%=      5-min Rain = 0
KBO1 200732Z 16010KT M02/M04 A3023 RMK A01 T10181042  RH  084%=      5-min Rain = 0
KBO1 200733Z 17010KT M02/M04 A3023 RMK A01 T10181042  RH  084%=      5-min Rain = 0
KBO1 200734Z 17010KT M02/M04 A3022 RMK A01 T10191042  RH  084%=      5-min Rain = 0
KBO1 200735Z 17009KT M02/M04 A3022 RMK A01 T10191042  RH  084%=      5-min Rain = 0
KBO1 200736Z 17009KT M02/M04 A3022 RMK A01 T10191043  RH  084%=      5-min Rain = 0
KBO1 200737Z 17008KT M02/M04 A3022 RMK A01 T10191042  RH  084%=      5-min Rain = 0
KBO1 200738Z 17009KT M02/M04 A3022 RMK A01 T10191043  RH  084%=      5-min Rain = 0
KBO1 200739Z 16010KT M02/M04 A3022 RMK A01 T10201043  RH  084%=      5-min Rain = 0
KBO1 200740Z 16010KT M02/M04 A3022 RMK A01 T10201043  RH  084%=      5-min Rain = 0
KBO1 200741Z 16010KT M02/M04 A3022 RMK A01 T10201043  RH  084%=      5-min Rain = 0
KBO1 200742Z 16010KT M02/M04 A3022 RMK A01 T10201043  RH  084%=      5-min Rain = 0
KBO1 200743Z 16010KT M02/M04 A3022 RMK A01 T10201043  RH  084%=      5-min Rain = 0
KBO1 200744Z 16010KT M02/M04 A3022 RMK A01 T10201043  RH  084%=      5-min Rain = 0
KBO1 200745Z 16010KT M02/M04 A3022 RMK A01 T10201043  RH  084%=      5-min Rain = 0
KBO1 200746Z 16009KT M02/M04 A3022 RMK A01 T10201042  RH  084%=      5-min Rain = 0
KBO1 200747Z 17008KT M02/M04 A3022 RMK A01 T10191042  RH  085%=      5-min Rain = 0
KBO1 200748Z 17008KT M02/M04 A3022 RMK A01 T10201042  RH  085%=      5-min Rain = 0
KBO1 200749Z 17009KT M02/M04 A3022 RMK A01 T10191042  RH  085%=      5-min Rain = 0
KBO1 200750Z 16010KT M02/M04 A3022 RMK A01 T10201043  RH  084%=      5-min Rain = 0
KBO1 200751Z 16009KT M02/M04 A3022 RMK A01 T10201043  RH  084%=      5-min Rain = 0
KBO1 200752Z 17009KT M02/M04 A3022 RMK A01 T10201042  RH  085%=      5-min Rain = 0
KBO1 200753Z 16009KT M02/M04 A3022 RMK A01 T10201043  RH  085%=      5-min Rain = 0
KBO1 200754Z 16009KT M02/M04 A3022 RMK A01 T10201043  RH  084%=      5-min Rain = 0
KBO1 200755Z 16008KT M02/M04 A3022 RMK A01 T10211043  RH  084%=      5-min Rain = 0
KBO1 200756Z 17007KT M02/M04 A3022 RMK A01 T10211043  RH  084%=      5-min Rain = 0
KBO1 200757Z 17007KT M02/M04 A3022 RMK A01 T10211044  RH  085%=      5-min Rain = 0
KBO1 200758Z 17008KT M02/M04 A3022 RMK A01 T10211044  RH  085%=      5-min Rain = 0
KBO1 200759Z 17009KT M02/M04 A3022 RMK A01 T10221044  RH  085%=      5-min Rain = 0
KBO1 200800Z 16009KT M02/M05 A3022 RMK A01 T10221045  RH  084%=      5-min Rain = 0
KBO1 200801Z 16009KT M02/M05 A3022 RMK A01 T10221045  RH  084%=      5-min Rain = 0
KBO1 200802Z 17009KT M02/M05 A3022 RMK A01 T10221045  RH  084%=      5-min Rain = 0
KBO1 200803Z 17008KT M02/M05 A3022 RMK A01 T10221045  RH  084%=      5-min Rain = 0
KBO1 200804Z 17007KT M02/M05 A3022 RMK A01 T10211045  RH  084%=      5-min Rain = 0
KBO1 200805Z 17008KT M02/M05 A3022 RMK A01 T10211045  RH  084%=      5-min Rain = 0
KBO1 200806Z 17006KT M02/M05 A3022 RMK A01 T10211045  RH  083%=      5-min Rain = 0
KBO1 200807Z 17006KT M02/M05 A3022 RMK A01 T10211045  RH  083%=      5-min Rain = 0
KBO1 200808Z 17007KT M02/M05 A3022 RMK A01 T10211046  RH  083%=      5-min Rain = 0
KBO1 200809Z 17008KT M02/M05 A3022 RMK A01 T10221047  RH  083%=      5-min Rain = 0
KBO1 200810Z 17008KT M02/M05 A3022 RMK A01 T10231048  RH  084%=      5-min Rain = 0
KBO1 200811Z 17009KT M02/M05 A3022 RMK A01 T10241048  RH  084%=      5-min Rain = 0
KBO1 200812Z 16009KT M02/M05 A3022 RMK A01 T10241047  RH  084%=      5-min Rain = 0
KBO1 200813Z 17008KT M02/M05 A3022 RMK A01 T10241047  RH  084%=      5-min Rain = 0
KBO1 200814Z 17009KT M03/M05 A3022 RMK A01 T10251048  RH  084%=      5-min Rain = 0
KBO1 200815Z 18010KT M03/M05 A3022 RMK A01 T10251048  RH  085%=      5-min Rain = 0
KBO1 200816Z 18010KT M02/M05 A3022 RMK A01 T10241047  RH  085%=      5-min Rain = 0
KBO1 200817Z 18009KT M02/M05 A3022 RMK A01 T10241046  RH  085%=      5-min Rain = 0
KBO1 200818Z 18008KT M02/M05 A3022 RMK A01 T10231046  RH  084%=      5-min Rain = 0
KBO1 200819Z 19008KT M02/M05 A3022 RMK A01 T10231047  RH  084%=      5-min Rain = 0
KBO1 200820Z 18008KT M02/M05 A3022 RMK A01 T10231047  RH  083%=      5-min Rain = 0
KBO1 200821Z 18008KT M02/M05 A3022 RMK A01 T10231048  RH  083%=      5-min Rain = 0
KBO1 200822Z 17008KT M02/M05 A3022 RMK A01 T10241048  RH  083%=      5-min Rain = 0
KBO1 200823Z 17008KT M02/M05 A3022 RMK A01 T10241048  RH  083%=      5-min Rain = 0
KBO1 200824Z 17008KT M02/M05 A3022 RMK A01 T10241049  RH  083%=      5-min Rain = 0
KBO1 200825Z 16009KT M03/M05 A3022 RMK A01 T10251049  RH  084%=      5-min Rain = 0
KBO1 200826Z 17009KT M03/M05 A3022 RMK A01 T10251049  RH  084%=      5-min Rain = 0
KBO1 200827Z 17008KT M03/M05 A3022 RMK A01 T10261048  RH  084%=      5-min Rain = 0
KBO1 200828Z 17008KT M03/M05 A3022 RMK A01 T10261048  RH  084%=      5-min Rain = 0
KBO1 200829Z 18008KT M03/M05 A3022 RMK A01 T10261048  RH  085%=      5-min Rain = 0
KBO1 200830Z 18008KT M03/M05 A3022 RMK A01 T10261048  RH  085%=      5-min Rain = 0
KBO1 200831Z 18008KT M03/M05 A3022 RMK A01 T10261049  RH  085%=      5-min Rain = 0
KBO1 200832Z 18008KT M03/M05 A3022 RMK A01 T10261048  RH  085%=      5-min Rain = 0
KBO1 200833Z 18007KT M03/M05 A3022 RMK A01 T10261048  RH  085%=      5-min Rain = 0
KBO1 200834Z 18007KT M03/M05 A3022 RMK A01 T10251048  RH  085%=      5-min Rain = 0
KBO1 200835Z 18007KT M03/M05 A3022 RMK A01 T10251048  RH  085%=      5-min Rain = 0
KBO1 200836Z 17007KT M03/M05 A3022 RMK A01 T10261048  RH  085%=      5-min Rain = 0
KBO1 200837Z 17007KT M03/M05 A3022 RMK A01 T10271049  RH  085%=      5-min Rain = 0
KBO1 200838Z 17007KT M03/M05 A3022 RMK A01 T10271049  RH  085%=      5-min Rain = 0
KBO1 200839Z 16006KT M03/M05 A3022 RMK A01 T10281049  RH  085%=      5-min Rain = 0
KBO1 200840Z 16006KT M03/M05 A3022 RMK A01 T10281050  RH  085%=      5-min Rain = 0
KBO1 200841Z 16006KT M03/M05 A3022 RMK A01 T10291050  RH  085%=      5-min Rain = 0
KBO1 200842Z 16006KT M03/M05 A3022 RMK A01 T10291050  RH  085%=      5-min Rain = 0
KBO1 200843Z 16007KT M03/M05 A3022 RMK A01 T10291050  RH  086%=      5-min Rain = 0
KBO1 200844Z 17007KT M03/M05 A3022 RMK A01 T10301050  RH  086%=      5-min Rain = 0
KBO1 200845Z 17008KT M03/M05 A3022 RMK A01 T10301050  RH  086%=      5-min Rain = 0
KBO1 200846Z 17009KT M03/M05 A3022 RMK A01 T10301050  RH  086%=      5-min Rain = 0
KBO1 200847Z 17008KT M03/M05 A3022 RMK A01 T10301049  RH  086%=      5-min Rain = 0
KBO1 200848Z 17007KT M03/M05 A3022 RMK A01 T10291049  RH  086%=      5-min Rain = 0
KBO1 200849Z 17006KT M03/M05 A3022 RMK A01 T10281048  RH  086%=      5-min Rain = 0
KBO1 200850Z 18005KT M03/M05 A3022 RMK A01 T10291049  RH  086%=      5-min Rain = 0
KBO1 200851Z 17005KT M03/M05 A3022 RMK A01 T10281049  RH  086%=      5-min Rain = 0
KBO1 200852Z 16005KT M03/M05 A3022 RMK A01 T10281049  RH  086%=      5-min Rain = 0
KBO1 200853Z 16005KT M03/M05 A3022 RMK A01 T10291049  RH  086%=      5-min Rain = 0
KBO1 200854Z 15006KT M03/M05 A3022 RMK A01 T10291049  RH  086%=      5-min Rain = 0
KBO1 200855Z 16007KT M03/M05 A3022 RMK A01 T10301049  RH  086%=      5-min Rain = 0
KBO1 200856Z 16007KT M03/M05 A3022 RMK A01 T10301049  RH  087%=      5-min Rain = 0
KBO1 200857Z 17006KT M03/M05 A3022 RMK A01 T10301049  RH  087%=      5-min Rain = 0
KBO1 200858Z 17007KT M03/M05 A3022 RMK A01 T10301049  RH  087%=      5-min Rain = 0
KBO1 200859Z 18007KT M03/M05 A3022 RMK A01 T10301049  RH  087%=      5-min Rain = 0
KBO1 200900Z 18007KT M03/M05 A3022 RMK A01 T10301049  RH  087%=      5-min Rain = 0
KBO1 200901Z 18007KT M03/M05 A3022 RMK A01 T10301049  RH  087%=      5-min Rain = 0
KBO1 200902Z 18007KT M03/M05 A3022 RMK A01 T10301049  RH  087%=      5-min Rain = 0
KBO1 200903Z 18007KT M03/M05 A3022 RMK A01 T10301049  RH  087%=      5-min Rain = 0
KBO1 200904Z 18007KT M03/M05 A3022 RMK A01 T10291049  RH  086%=      5-min Rain = 0
KBO1 200905Z 17006KT M03/M05 A3022 RMK A01 T10291049  RH  086%=      5-min Rain = 0
KBO1 200906Z 16006KT M03/M05 A3022 RMK A01 T10291049  RH  086%=      5-min Rain = 0
KBO1 200907Z 15007KT M03/M05 A3022 RMK A01 T10291049  RH  086%=      5-min Rain = 0
KBO1 200908Z 15007KT M03/M05 A3022 RMK A01 T10291050  RH  086%=      5-min Rain = 0
KBO1 200909Z 15007KT M03/M05 A3022 RMK A01 T10291050  RH  086%=      5-min Rain = 0
KBO1 200910Z 15006KT M03/M05 A3022 RMK A01 T10301049  RH  086%=      5-min Rain = 0
KBO1 200911Z 16006KT M03/M05 A3022 RMK A01 T10301049  RH  087%=      5-min Rain = 0
KBO1 200912Z 17006KT M03/M05 A3022 RMK A01 T10301049  RH  087%=      5-min Rain = 0
KBO1 200913Z 18007KT M03/M05 A3022 RMK A01 T10301049  RH  087%=      5-min Rain = 0
KBO1 200914Z 18007KT M03/M05 A3022 RMK A01 T10301049  RH  087%=      5-min Rain = 0
KBO1 200915Z 18007KT M03/M05 A3022 RMK A01 T10301048  RH  087%=      5-min Rain = 0
KBO1 200916Z 17006KT M03/M05 A3022 RMK A01 T10291047  RH  087%=      5-min Rain = 0
KBO1 200917Z 17005KT M03/M05 A3022 RMK A01 T10281047  RH  087%=      5-min Rain = 0
KBO1 200918Z 16004KT M03/M05 A3022 RMK A01 T10281048  RH  086%=      5-min Rain = 0
KBO1 200919Z 16004KT M03/M05 A3022 RMK A01 T10281048  RH  086%=      5-min Rain = 0
KBO1 200920Z 16004KT M03/M05 A3022 RMK A01 T10281049  RH  086%=      5-min Rain = 0
KBO1 200921Z 16004KT M03/M05 A3022 RMK A01 T10291049  RH  086%=      5-min Rain = 0
KBO1 200922Z 16005KT M03/M05 A3022 RMK A01 T10291049  RH  086%=      5-min Rain = 0
KBO1 200923Z 16005KT M03/M05 A3022 RMK A01 T10291049  RH  086%=      5-min Rain = 0
KBO1 200924Z 17006KT M03/M05 A3022 RMK A01 T10291048  RH  087%=      5-min Rain = 0
KBO1 200925Z 17005KT M03/M05 A3022 RMK A01 T10291048  RH  087%=      5-min Rain = 0
KBO1 200926Z 18006KT M03/M05 A3022 RMK A01 T10291048  RH  087%=      5-min Rain = 0
KBO1 200927Z 18006KT M03/M05 A3022 RMK A01 T10291048  RH  087%=      5-min Rain = 0
KBO1 200928Z 18006KT M03/M05 A3022 RMK A01 T10291049  RH  087%=      5-min Rain = 0
KBO1 200929Z 18006KT M03/M05 A3022 RMK A01 T10301049  RH  087%=      5-min Rain = 0
KBO1 200930Z 18006KT M03/M05 A3022 RMK A01 T10301048  RH  087%=      5-min Rain = 0
KBO1 200931Z 18006KT M03/M05 A3022 RMK A01 T10301048  RH  087%=      5-min Rain = 0
KBO1 200932Z 18006KT M03/M05 A3022 RMK A01 T10301049  RH  087%=      5-min Rain = 0
KBO1 200933Z 18006KT M03/M05 A3022 RMK A01 T10301049  RH  087%=      5-min Rain = 0
KBO1 200934Z 18006KT M03/M05 A3022 RMK A01 T10301049  RH  087%=      5-min Rain = 0
KBO1 200935Z 18006KT M03/M05 A3022 RMK A01 T10301049  RH  087%=      5-min Rain = 0
KBO1 200936Z 18006KT M03/M05 A3022 RMK A01 T10301049  RH  087%=      5-min Rain = 0
KBO1 200937Z 18006KT M03/M05 A3022 RMK A01 T10301049  RH  087%=      5-min Rain = 0
KBO1 200938Z 18006KT M03/M05 A3022 RMK A01 T10301050  RH  087%=      5-min Rain = 0
KBO1 200939Z 18006KT M03/M05 A3022 RMK A01 T10301050  RH  086%=      5-min Rain = 0
KBO1 200940Z 17006KT M03/M05 A3022 RMK A01 T10311050  RH  086%=      5-min Rain = 0
KBO1 200941Z 17005KT M03/M05 A3021 RMK A01 T10301050  RH  086%=      5-min Rain = 0
KBO1 200942Z 17005KT M03/M05 A3021 RMK A01 T10301050  RH  086%=      5-min Rain = 0
KBO1 200943Z 18005KT M03/M05 A3021 RMK A01 T10311050  RH  086%=      5-min Rain = 0
KBO1 200944Z 18005KT M03/M05 A3021 RMK A01 T10311050  RH  086%=      5-min Rain = 0
KBO1 200945Z 18005KT M03/M05 A3021 RMK A01 T10311051  RH  086%=      5-min Rain = 0
KBO1 200946Z 18005KT M03/M05 A3021 RMK A01 T10321051  RH  086%=      5-min Rain = 0
KBO1 200947Z 19005KT M03/M05 A3021 RMK A01 T10321051  RH  086%=      5-min Rain = 0
KBO1 200948Z 19005KT M03/M05 A3021 RMK A01 T10331052  RH  087%=      5-min Rain = 0
KBO1 200949Z 19005KT M03/M05 A3021 RMK A01 T10331052  RH  087%=      5-min Rain = 0
KBO1 200950Z 19006KT M03/M05 A3021 RMK A01 T10331052  RH  087%=      5-min Rain = 0
KBO1 200951Z 18006KT M03/M05 A3022 RMK A01 T10341053  RH  087%=      5-min Rain = 0
KBO1 200952Z 18006KT M03/M05 A3022 RMK A01 T10341053  RH  087%=      5-min Rain = 0
KBO1 200953Z 18006KT M03/M05 A3022 RMK A01 T10341053  RH  087%=      5-min Rain = 0
KBO1 200954Z 17005KT M04/M05 A3022 RMK A01 T10351053  RH  087%=      5-min Rain = 0
KBO1 200955Z 17005KT M04/M05 A3022 RMK A01 T10351054  RH  087%=      5-min Rain = 0
KBO1 200956Z 18005KT M04/M05 A3022 RMK A01 T10351053  RH  087%=      5-min Rain = 0
KBO1 200957Z 18005KT M04/M05 A3022 RMK A01 T10351054  RH  087%=      5-min Rain = 0
KBO1 200958Z 19005KT M04/M05 A3022 RMK A01 T10351053  RH  087%=      5-min Rain = 0
KBO1 200959Z 20005KT M04/M05 A3022 RMK A01 T10351053  RH  087%=      5-min Rain = 0
KBO1 201000Z 20005KT M04/M05 A3022 RMK A01 T10351053  RH  088%=      5-min Rain = 0
KBO1 201001Z 21004KT M04/M05 A3021 RMK A01 T10351053  RH  087%=      5-min Rain = 0
KBO1 201002Z 21004KT M04/M05 A3021 RMK A01 T10351054  RH  087%=      5-min Rain = 0
KBO1 201003Z 20004KT M04/M05 A3021 RMK A01 T10361054  RH  087%=      5-min Rain = 0
KBO1 201004Z 19004KT M04/M05 A3021 RMK A01 T10361054  RH  087%=      5-min Rain = 0
KBO1 201005Z 18004KT M04/M06 A3021 RMK A01 T10361055  RH  087%=      5-min Rain = 0
KBO1 201006Z 18004KT M04/M06 A3021 RMK A01 T10371056  RH  087%=      5-min Rain = 0
KBO1 201007Z 17004KT M04/M06 A3021 RMK A01 T10371056  RH  087%=      5-min Rain = 0
KBO1 201008Z 17004KT M04/M06 A3021 RMK A01 T10371056  RH  087%=      5-min Rain = 0
KBO1 201009Z 18004KT M04/M06 A3021 RMK A01 T10371056  RH  087%=      5-min Rain = 0
KBO1 201010Z 18004KT M04/M06 A3021 RMK A01 T10381056  RH  087%=      5-min Rain = 0
KBO1 201011Z 19004KT M04/M06 A3021 RMK A01 T10381056  RH  087%=      5-min Rain = 0
KBO1 201012Z 20005KT M04/M06 A3021 RMK A01 T10391057  RH  087%=      5-min Rain = 0
KBO1 201013Z 21005KT M04/M06 A3021 RMK A01 T10391056  RH  088%=      5-min Rain = 0
KBO1 201014Z 21005KT M04/M06 A3021 RMK A01 T10391056  RH  088%=      5-min Rain = 0
KBO1 201015Z 21005KT M04/M06 A3021 RMK A01 T10391056  RH  088%=      5-min Rain = 0
KBO1 201016Z 21005KT M04/M06 A3021 RMK A01 T10391056  RH  088%=      5-min Rain = 0
KBO1 201017Z 21004KT M04/M06 A3021 RMK A01 T10391057  RH  088%=      5-min Rain = 0
KBO1 201018Z 20004KT M04/M06 A3021 RMK A01 T10401058  RH  088%=      5-min Rain = 0
KBO1 201019Z 18004KT M04/M06 A3021 RMK A01 T10401058  RH  087%=      5-min Rain = 0
KBO1 201020Z 18003KT M04/M06 A3021 RMK A01 T10411059  RH  088%=      5-min Rain = 0
KBO1 201021Z 18003KT M04/M06 A3021 RMK A01 T10421059  RH  088%=      5-min Rain = 0
KBO1 201022Z 19004KT M04/M06 A3021 RMK A01 T10421059  RH  088%=      5-min Rain = 0
KBO1 201023Z 20005KT M04/M06 A3021 RMK A01 T10421058  RH  089%=      5-min Rain = 0
KBO1 201024Z 21005KT M04/M06 A3021 RMK A01 T10431058  RH  089%=      5-min Rain = 0
KBO1 201025Z 22006KT M04/M06 A3021 RMK A01 T10421058  RH  089%=      5-min Rain = 0
KBO1 201026Z 22006KT M04/M06 A3021 RMK A01 T10421058  RH  089%=      5-min Rain = 0
KBO1 201027Z 22006KT M04/M06 A3021 RMK A01 T10421058  RH  089%=      5-min Rain = 0
KBO1 201028Z 22006KT M04/M06 A3021 RMK A01 T10431059  RH  089%=      5-min Rain = 0
KBO1 201029Z 22006KT M04/M06 A3021 RMK A01 T10431059  RH  089%=      5-min Rain = 0
KBO1 201030Z 22006KT M04/M06 A3021 RMK A01 T10431059  RH  089%=      5-min Rain = 0
KBO1 201031Z 22005KT M04/M06 A3021 RMK A01 T10431059  RH  089%=      5-min Rain = 0
KBO1 201032Z 21004KT M04/M06 A3021 RMK A01 T10431059  RH  089%=      5-min Rain = 0
KBO1 201033Z 19003KT M04/M06 A3021 RMK A01 T10431059  RH  089%=      5-min Rain = 0
KBO1 201034Z 17003KT M04/M06 A3021 RMK A01 T10431059  RH  089%=      5-min Rain = 0
KBO1 201035Z 15003KT M04/M06 A3021 RMK A01 T10441059  RH  089%=      5-min Rain = 0
KBO1 201036Z 16003KT M04/M06 A3021 RMK A01 T10441060  RH  089%=      5-min Rain = 0
KBO1 201037Z 17003KT M04/M06 A3021 RMK A01 T10441059  RH  089%=      5-min Rain = 0
KBO1 201038Z 18003KT M05/M06 A3021 RMK A01 T10451060  RH  089%=      5-min Rain = 0
KBO1 201039Z 20004KT M05/M06 A3021 RMK A01 T10451060  RH  089%=      5-min Rain = 0
KBO1 201040Z 21004KT M05/M06 A3021 RMK A01 T10451060  RH  090%=      5-min Rain = 0
KBO1 201041Z 21005KT M05/M06 A3021 RMK A01 T10451060  RH  090%=      5-min Rain = 0
KBO1 201042Z 22006KT M05/M06 A3021 RMK A01 T10461060  RH  090%=      5-min Rain = 0
KBO1 201043Z 22006KT M05/M06 A302 RMK A01 T10451060  RH  090%=      5-min Rain = 0
KBO1 201044Z 22006KT M05/M06 A302 RMK A01 T10451059  RH  090%=      5-min Rain = 0
KBO1 201045Z 22006KT M04/M06 A302 RMK A01 T10441058  RH  090%=      5-min Rain = 0
KBO1 201046Z 21005KT M04/M06 A302 RMK A01 T10431058  RH  090%=      5-min Rain = 0
KBO1 201047Z 21005KT M04/M06 A302 RMK A01 T10431058  RH  089%=      5-min Rain = 0
KBO1 201048Z 20005KT M04/M06 A302 RMK A01 T10431058  RH  089%=      5-min Rain = 0
KBO1 201049Z 20004KT M04/M06 A302 RMK A01 T10421058  RH  089%=      5-min Rain = 0
KBO1 201050Z 20003KT M04/M06 A302 RMK A01 T10431059  RH  089%=      5-min Rain = 0
KBO1 201051Z 20003KT M04/M06 A302 RMK A01 T10421058  RH  089%=      5-min Rain = 0
KBO1 201052Z 19003KT M04/M06 A302 RMK A01 T10431059  RH  089%=      5-min Rain = 0
KBO1 201053Z 19003KT M04/M06 A302 RMK A01 T10431059  RH  089%=      5-min Rain = 0
KBO1 201054Z 18003KT M04/M06 A302 RMK A01 T10431059  RH  089%=      5-min Rain = 0
KBO1 201055Z 17003KT M04/M06 A302 RMK A01 T10431059  RH  089%=      5-min Rain = 0
KBO1 201056Z 18003KT M04/M06 A302 RMK A01 T10431059  RH  089%=      5-min Rain = 0
KBO1 201057Z 18004KT M04/M06 A302 RMK A01 T10441059  RH  089%=      5-min Rain = 0
KBO1 201058Z 18004KT M04/M06 A302 RMK A01 T10431059  RH  089%=      5-min Rain = 0
KBO1 201059Z 19005KT M04/M06 A302 RMK A01 T10441059  RH  089%=      5-min Rain = 0
KBO1 201100Z 20005KT M04/M06 A302 RMK A01 T10441059  RH  089%=      5-min Rain = 0
KBO1 201101Z 21006KT M04/M06 A3019 RMK A01 T10441059  RH  089%=      5-min Rain = 0
KBO1 201102Z 22006KT M04/M06 A3019 RMK A01 T10431058  RH  089%=      5-min Rain = 0
KBO1 201103Z 22006KT M04/M06 A3019 RMK A01 T10421057  RH  089%=      5-min Rain = 0
KBO1 201104Z 22006KT M04/M06 A3019 RMK A01 T10421057  RH  089%=      5-min Rain = 0
KBO1 201105Z 22006KT M04/M06 A3019 RMK A01 T10421058  RH  089%=      5-min Rain = 0
KBO1 201106Z 22006KT M04/M06 A3019 RMK A01 T10421058  RH  089%=      5-min Rain = 0
KBO1 201107Z 22005KT M04/M06 A3019 RMK A01 T10421058  RH  089%=      5-min Rain = 0
KBO1 201108Z 21005KT M04/M06 A3019 RMK A01 T10421058  RH  089%=      5-min Rain = 0
KBO1 201109Z 20004KT M04/M06 A3019 RMK A01 T10421058  RH  089%=      5-min Rain = 0
KBO1 201110Z 18004KT M04/M06 A302 RMK A01 T10431059  RH  089%=      5-min Rain = 0
KBO1 201111Z 16004KT M04/M06 A302 RMK A01 T10431059  RH  088%=      5-min Rain = 0
KBO1 201112Z 15004KT M04/M06 A302 RMK A01 T10441060  RH  089%=      5-min Rain = 0
KBO1 201113Z 15005KT M04/M06 A302 RMK A01 T10441060  RH  089%=      5-min Rain = 0
KBO1 201114Z 17005KT M04/M06 A3019 RMK A01 T10441060  RH  089%=      5-min Rain = 0
KBO1 201115Z 19006KT M04/M06 A3019 RMK A01 T10441059  RH  089%=      5-min Rain = 0
KBO1 201116Z 21006KT M04/M06 A3019 RMK A01 T10441059  RH  090%=      5-min Rain = 0
KBO1 201117Z 21007KT M04/M06 A3019 RMK A01 T10421057  RH  090%=      5-min Rain = 0
KBO1 201118Z 22007KT M04/M06 A3019 RMK A01 T10401055  RH  089%=      5-min Rain = 0
KBO1 201119Z 22008KT M04/M06 A3019 RMK A01 T10381055  RH  088%=      5-min Rain = 0
KBO1 201120Z 23008KT M04/M06 A3019 RMK A01 T10371055  RH  087%=      5-min Rain = 0
KBO1 201121Z 23007KT M04/M06 A3018 RMK A01 T10371057  RH  086%=      5-min Rain = 0
KBO1 201122Z 22007KT M04/M06 A3018 RMK A01 T10371057  RH  085%=      5-min Rain = 0
KBO1 201123Z 22006KT M04/M06 A3019 RMK A01 T10371058  RH  085%=      5-min Rain = 0
KBO1 201124Z 19004KT M04/M06 A3019 RMK A01 T10381059  RH  085%=      5-min Rain = 0
KBO1 201125Z 15004KT M04/M06 A3019 RMK A01 T10381060  RH  085%=      5-min Rain = 0
KBO1 201126Z 13005KT M04/M06 A3019 RMK A01 T10401061  RH  085%=      5-min Rain = 0
KBO1 201127Z 15005KT M04/M06 A3019 RMK A01 T10411061  RH  086%=      5-min Rain = 0
KBO1 201128Z 18004KT M04/M06 A3019 RMK A01 T10421062  RH  086%=      5-min Rain = 0
KBO1 201129Z 20005KT M04/M06 A3019 RMK A01 T10421061  RH  087%=      5-min Rain = 0
KBO1 201130Z 21006KT M04/M06 A3019 RMK A01 T10421061  RH  087%=      5-min Rain = 0
KBO1 201131Z 21006KT M04/M06 A3018 RMK A01 T10421060  RH  087%=      5-min Rain = 0
KBO1 201132Z 21007KT M04/M06 A3018 RMK A01 T10411060  RH  087%=      5-min Rain = 0
KBO1 201133Z 21007KT M04/M06 A3018 RMK A01 T10411061  RH  086%=      5-min Rain = 0
KBO1 201134Z 21007KT M04/M06 A3018 RMK A01 T10421062  RH  086%=      5-min Rain = 0
KBO1 201135Z 21007KT M04/M06 A3018 RMK A01 T10431063  RH  086%=      5-min Rain = 0
KBO1 201136Z 22007KT M04/M06 A3018 RMK A01 T10431063  RH  086%=      5-min Rain = 0
KBO1 201137Z 22007KT M04/M06 A3018 RMK A01 T10431063  RH  086%=      5-min Rain = 0
KBO1 201138Z 22007KT M04/M06 A3018 RMK A01 T10431063  RH  086%=      5-min Rain = 0
KBO1 201139Z 22006KT M04/M06 A3018 RMK A01 T10421063  RH  086%=      5-min Rain = 0
KBO1 201140Z 21006KT M04/M06 A3018 RMK A01 T10431063  RH  085%=      5-min Rain = 0
KBO1 201141Z 20006KT M04/M06 A3018 RMK A01 T10421063  RH  085%=      5-min Rain = 0
KBO1 201142Z 19005KT M04/M06 A3018 RMK A01 T10431064  RH  085%=      5-min Rain = 0
KBO1 201143Z 17005KT M04/M07 A3018 RMK A01 T10441065  RH  085%=      5-min Rain = 0
KBO1 201144Z 18006KT M05/M07 A3018 RMK A01 T10461067  RH  085%=      5-min Rain = 0
KBO1 201145Z 18005KT M05/M07 A3018 RMK A01 T10461067  RH  086%=      5-min Rain = 0
KBO1 201146Z 19005KT M05/M07 A3018 RMK A01 T10471066  RH  086%=      5-min Rain = 0
KBO1 201147Z 20006KT M05/M07 A3018 RMK A01 T10481066  RH  087%=      5-min Rain = 0
KBO1 201148Z 21007KT M05/M07 A3018 RMK A01 T10481065  RH  088%=      5-min Rain = 0
KBO1 201149Z 22007KT M05/M07 A3018 RMK A01 T10481065  RH  088%=      5-min Rain = 0
KBO1 201150Z 22008KT M05/M07 A3018 RMK A01 T10481065  RH  088%=      5-min Rain = 0
KBO1 201151Z 22008KT M05/M06 A3018 RMK A01 T10471064  RH  088%=      5-min Rain = 0
KBO1 201152Z 22008KT M05/M06 A3018 RMK A01 T10471063  RH  088%=      5-min Rain = 0
KBO1 201153Z 22008KT M05/M06 A3018 RMK A01 T10451062  RH  088%=      5-min Rain = 0
KBO1 201154Z 21007KT M04/M06 A3018 RMK A01 T10441062  RH  088%=      5-min Rain = 0
KBO1 201155Z 20006KT M04/M06 A3018 RMK A01 T10441062  RH  087%=      5-min Rain = 0
KBO1 201156Z 20006KT M04/M06 A3018 RMK A01 T10441063  RH  087%=      5-min Rain = 0
KBO1 201157Z 19005KT M05/M06 A3018 RMK A01 T10451064  RH  086%=      5-min Rain = 0
KBO1 201158Z 19005KT M05/M07 A3018 RMK A01 T10461065  RH  086%=      5-min Rain = 0
KBO1 201159Z 19005KT M05/M07 A3018 RMK A01 T10461066  RH  086%=      5-min Rain = 0
KBO1 201200Z 19005KT M05/M07 A3018 RMK A01 T10461066  RH  086%=      5-min Rain = 0
KBO1 201201Z 20005KT M05/M07 A3018 RMK A01 T10471066  RH  086%=      5-min Rain = 0
KBO1 201202Z 20005KT M05/M07 A3018 RMK A01 T10481067  RH  086%=      5-min Rain = 0
KBO1 201203Z 21005KT M05/M07 A3018 RMK A01 T10481068  RH  086%=      5-min Rain = 0
KBO1 201204Z 22006KT M05/M07 A3018 RMK A01 T10491068  RH  087%=      5-min Rain = 0
KBO1 201205Z 22007KT M05/M07 A3018 RMK A01 T10491067  RH  087%=      5-min Rain = 0
KBO1 201206Z 22007KT M05/M06 A3018 RMK A01 T10471064  RH  088%=      5-min Rain = 0
KBO1 201207Z 23009KT M04/M06 A3018 RMK A01 T10441061  RH  088%=      5-min Rain = 0
KBO1 201208Z 23010KT M04/M06 A3018 RMK A01 T10411060  RH  087%=      5-min Rain = 0
KBO1 201209Z 23010KT M04/M06 A3018 RMK A01 T10381059  RH  086%=      5-min Rain = 0
KBO1 201210Z 23010KT M04/M06 A3018 RMK A01 T10361059  RH  084%=      5-min Rain = 0
KBO1 201211Z 23009KT M03/M06 A3018 RMK A01 T10341059  RH  083%=      5-min Rain = 0
KBO1 201212Z 24009KT M03/M06 A3018 RMK A01 T10331059  RH  082%=      5-min Rain = 0
KBO1 201213Z 24008KT M03/M06 A3018 RMK A01 T10321059  RH  082%=      5-min Rain = 0
KBO1 201214Z 24008KT M03/M06 A3018 RMK A01 T10311059  RH  081%=      5-min Rain = 0
KBO1 201215Z 24008KT M03/M06 A3018 RMK A01 T10301059  RH  080%=      5-min Rain = 0
KBO1 201216Z 24007KT M03/M06 A3018 RMK A01 T10291059  RH  080%=      5-min Rain = 0
KBO1 201217Z 24008KT M03/M06 A3018 RMK A01 T10291059  RH  080%=      5-min Rain = 0
KBO1 201218Z 24008KT M03/M06 A3018 RMK A01 T10291059  RH  080%=      5-min Rain = 0
KBO1 201219Z 24009KT M03/M06 A3018 RMK A01 T10281058  RH  080%=      5-min Rain = 0
KBO1 201220Z 24009KT M03/M06 A3018 RMK A01 T10281058  RH  079%=      5-min Rain = 0
KBO1 201221Z 24009KT M03/M06 A3018 RMK A01 T10261058  RH  079%=      5-min Rain = 0
KBO1 201222Z 24009KT M03/M06 A3018 RMK A01 T10261058  RH  079%=      5-min Rain = 0
KBO1 201223Z 24009KT M03/M06 A3018 RMK A01 T10251057  RH  078%=      5-min Rain = 0
KBO1 201224Z 24010KT M03/M06 A3018 RMK A01 T10251057  RH  078%=      5-min Rain = 0
KBO1 201225Z 24010KT M02/M06 A3018 RMK A01 T10241057  RH  078%=      5-min Rain = 0
KBO1 201226Z 24009KT M02/M06 A3018 RMK A01 T10241057  RH  078%=      5-min Rain = 0
KBO1 201227Z 24009KT M02/M06 A3017 RMK A01 T10231056  RH  078%=      5-min Rain = 0
KBO1 201228Z 24009KT M02/M06 A3017 RMK A01 T10231057  RH  078%=      5-min Rain = 0
KBO1 201229Z 24009KT M02/M06 A3017 RMK A01 T10231057  RH  077%=      5-min Rain = 0
KBO1 201230Z 24009KT M02/M06 A3017 RMK A01 T10231057  RH  077%=      5-min Rain = 0
KBO1 201231Z 24009KT M02/M06 A3017 RMK A01 T10221057  RH  077%=      5-min Rain = 0
KBO1 201232Z 24009KT M02/M06 A3017 RMK A01 T10221057  RH  077%=      5-min Rain = 0
KBO1 201233Z 23008KT M02/M06 A3017 RMK A01 T10221058  RH  076%=      5-min Rain = 0
KBO1 201234Z 24009KT M02/M06 A3017 RMK A01 T10221058  RH  076%=      5-min Rain = 0
KBO1 201235Z 24009KT M02/M06 A3017 RMK A01 T10211057  RH  076%=      5-min Rain = 0
KBO1 201236Z 24009KT M02/M06 A3018 RMK A01 T10211058  RH  076%=      5-min Rain = 0
KBO1 201237Z 24009KT M02/M06 A3018 RMK A01 T10211058  RH  076%=      5-min Rain = 0
KBO1 201238Z 24009KT M02/M06 A3018 RMK A01 T10211058  RH  076%=      5-min Rain = 0
KBO1 201239Z 24009KT M02/M06 A3018 RMK A01 T10211057  RH  076%=      5-min Rain = 0
KBO1 201240Z 24009KT M02/M06 A3018 RMK A01 T10211058  RH  076%=      5-min Rain = 0
KBO1 201241Z 24009KT M02/M06 A3018 RMK A01 T10211058  RH  076%=      5-min Rain = 0
KBO1 201242Z 24008KT M02/M06 A3018 RMK A01 T10211058  RH  076%=      5-min Rain = 0
KBO1 201243Z 24008KT M02/M06 A3018 RMK A01 T10201058  RH  076%=      5-min Rain = 0
KBO1 201244Z 24008KT M02/M06 A3018 RMK A01 T10201058  RH  075%=      5-min Rain = 0
KBO1 201245Z 24008KT M02/M06 A3018 RMK A01 T10201057  RH  075%=      5-min Rain = 0
KBO1 201246Z 24008KT M02/M06 A3018 RMK A01 T10191058  RH  075%=      5-min Rain = 0
KBO1 201247Z 24008KT M02/M06 A3018 RMK A01 T10191058  RH  075%=      5-min Rain = 0
KBO1 201248Z 24008KT M02/M06 A3018 RMK A01 T10191058  RH  075%=      5-min Rain = 0
KBO1 201249Z 24008KT M02/M06 A3018 RMK A01 T10181057  RH  075%=      5-min Rain = 0
KBO1 201250Z 24008KT M02/M06 A3018 RMK A01 T10181058  RH  074%=      5-min Rain = 0
KBO1 201251Z 24009KT M02/M06 A3018 RMK A01 T10181057  RH  074%=      5-min Rain = 0
KBO1 201252Z 24009KT M02/M06 A3018 RMK A01 T10181057  RH  074%=      5-min Rain = 0
KBO1 201253Z 24009KT M02/M06 A3018 RMK A01 T10171058  RH  074%=      5-min Rain = 0
KBO1 201254Z 24009KT M02/M06 A3018 RMK A01 T10171058  RH  074%=      5-min Rain = 0
KBO1 201255Z 24010KT M02/M06 A3018 RMK A01 T10171058  RH  073%=      5-min Rain = 0
KBO1 201256Z 24010KT M02/M06 A3018 RMK A01 T10161058  RH  073%=      5-min Rain = 0
KBO1 201257Z 24011KT M02/M06 A3018 RMK A01 T10161058  RH  073%=      5-min Rain = 0
KBO1 201258Z 25009KT M02/M06 A3018 RMK A01 T10161058  RH  073%=      5-min Rain = 0
KBO1 201259Z 24010KT M02/M06 A3018 RMK A01 T10161058  RH  073%=      5-min Rain = 0
KBO1 201300Z 24011KT M02/M06 A3018 RMK A01 T10161058  RH  073%=      5-min Rain = 0
KBO1 201301Z 24011KT M02/M06 A3018 RMK A01 T10171059  RH  073%=      5-min Rain = 0
KBO1 201302Z 24011KT M02/M06 A3018 RMK A01 T10161059  RH  073%=      5-min Rain = 0
KBO1 201303Z 24011KT M02/M06 A3018 RMK A01 T10171059  RH  073%=      5-min Rain = 0
KBO1 201304Z 24010KT M02/M06 A3018 RMK A01 T10171059  RH  073%=      5-min Rain = 0
KBO1 201305Z 24011KT M02/M06 A3017 RMK A01 T10171059  RH  073%=      5-min Rain = 0
KBO1 201306Z 24011KT M02/M06 A3017 RMK A01 T10171059  RH  073%=      5-min Rain = 0
KBO1 201307Z 24012KT M02/M06 A3017 RMK A01 T10161059  RH  073%=      5-min Rain = 0
KBO1 201308Z 24012KT M02/M06 A3017 RMK A01 T10161059  RH  073%=      5-min Rain = 0
KBO1 201309Z 25012KT M02/M06 A3017 RMK A01 T10161059  RH  072%=      5-min Rain = 0
KBO1 201310Z 24012KT M02/M06 A3018 RMK A01 T10151059  RH  072%=      5-min Rain = 0
KBO1 201311Z 25011KT M02/M06 A3018 RMK A01 T10151059  RH  072%=      5-min Rain = 0
KBO1 201312Z 25011KT M02/M06 A3018 RMK A01 T10151059  RH  072%=      5-min Rain = 0
KBO1 201313Z 24011KT M01/M06 A3018 RMK A01 T10141059  RH  071%=      5-min Rain = 0
KBO1 201314Z 25011KT M01/M06 A3018 RMK A01 T10141059  RH  071%=      5-min Rain = 0
KBO1 201315Z 25011KT M01/M06 A3018 RMK A01 T10131059  RH  071%=      5-min Rain = 0
KBO1 201316Z 25011KT M01/M06 A3018 RMK A01 T10131059  RH  071%=      5-min Rain = 0
KBO1 201317Z 25011KT M01/M06 A3018 RMK A01 T10131059  RH  071%=      5-min Rain = 0
KBO1 201318Z 25012KT M01/M06 A3018 RMK A01 T10131060  RH  071%=      5-min Rain = 0
KBO1 201319Z 24010KT M01/M06 A3018 RMK A01 T10121059  RH  070%=      5-min Rain = 0
KBO1 201320Z 25012KT M01/M06 A3018 RMK A01 T10121059  RH  070%=      5-min Rain = 0
KBO1 201321Z 25012KT M01/M06 A3018 RMK A01 T10121060  RH  070%=      5-min Rain = 0
KBO1 201322Z 25010KT M01/M06 A3018 RMK A01 T10111060  RH  069%=      5-min Rain = 0
KBO1 201323Z 25011KT M01/M06 A3018 RMK A01 T10111060  RH  070%=      5-min Rain = 0
KBO1 201324Z 25009KT M01/M06 A3018 RMK A01 T10111060  RH  069%=      5-min Rain = 0
KBO1 201325Z 25010KT M01/M06 A3018 RMK A01 T10111060  RH  069%=      5-min Rain = 0
KBO1 201326Z 25009KT M01/M06 A3018 RMK A01 T10111060  RH  069%=      5-min Rain = 0
KBO1 201327Z 25010KT M01/M06 A3018 RMK A01 T10121060  RH  069%=      5-min Rain = 0
KBO1 201328Z 25009KT M01/M06 A3018 RMK A01 T10121060  RH  070%=      5-min Rain = 0
KBO1 201329Z 25009KT M01/M06 A3018 RMK A01 T10121060  RH  070%=      5-min Rain = 0
KBO1 201330Z 25009KT M01/M06 A3018 RMK A01 T10131060  RH  070%=      5-min Rain = 0
KBO1 201331Z 25009KT M01/M06 A3018 RMK A01 T10141060  RH  071%=      5-min Rain = 0
KBO1 201332Z 25009KT M01/M06 A3018 RMK A01 T10141060  RH  071%=      5-min Rain = 0
KBO1 201333Z 26008KT M01/M06 A3018 RMK A01 T10141060  RH  071%=      5-min Rain = 0
KBO1 201334Z 26008KT M01/M06 A3018 RMK A01 T10141060  RH  071%=      5-min Rain = 0
KBO1 201335Z 26010KT M02/M06 A3019 RMK A01 T10151060  RH  071%=      5-min Rain = 0
KBO1 201336Z 26010KT M01/M06 A3019 RMK A01 T10141059  RH  071%=      5-min Rain = 0
KBO1 201337Z 26010KT M01/M06 A3019 RMK A01 T10131059  RH  071%=      5-min Rain = 0
KBO1 201338Z 27009KT M01/M06 A3019 RMK A01 T10121059  RH  071%=      5-min Rain = 0
KBO1 201339Z 26010KT M01/M06 A3019 RMK A01 T10121059  RH  070%=      5-min Rain = 0
KBO1 201340Z 26010KT M01/M06 A3019 RMK A01 T10111059  RH  070%=      5-min Rain = 0
KBO1 201341Z 26010KT M01/M06 A3019 RMK A01 T10111058  RH  071%=      5-min Rain = 0
KBO1 201342Z 26010KT M01/M06 A3019 RMK A01 T10121059  RH  071%=      5-min Rain = 0
KBO1 201343Z 25010KT M01/M06 A3019 RMK A01 T10121058  RH  071%=      5-min Rain = 0
KBO1 201344Z 26010KT M01/M06 A3019 RMK A01 T10131058  RH  071%=      5-min Rain = 0
KBO1 201345Z 25009KT M01/M06 A3019 RMK A01 T10131058  RH  071%=      5-min Rain = 0
KBO1 201346Z 25009KT M01/M06 A3019 RMK A01 T10131058  RH  071%=      5-min Rain = 0
KBO1 201347Z 26009KT M01/M06 A3019 RMK A01 T10141058  RH  072%=      5-min Rain = 0
KBO1 201348Z 26009KT M01/M06 A3019 RMK A01 T10141058  RH  072%=      5-min Rain = 0
KBO1 201349Z 26008KT M02/M06 A3019 RMK A01 T10151058  RH  072%=      5-min Rain = 0
KBO1 201350Z 26008KT M02/M06 A302 RMK A01 T10161058  RH  073%=      5-min Rain = 0
KBO1 201351Z 27007KT M02/M06 A302 RMK A01 T10171058  RH  074%=      5-min Rain = 0
KBO1 201352Z 27007KT M02/M06 A302 RMK A01 T10181058  RH  074%=      5-min Rain = 0
KBO1 201353Z 27007KT M02/M06 A302 RMK A01 T10191058  RH  074%=      5-min Rain = 0
KBO1 201354Z 27007KT M02/M06 A302 RMK A01 T10191058  RH  075%=      5-min Rain = 0
KBO1 201355Z 27007KT M02/M06 A302 RMK A01 T10191058  RH  075%=      5-min Rain = 0
KBO1 201356Z 27007KT M02/M06 A302 RMK A01 T10201058  RH  075%=      5-min Rain = 0
KBO1 201357Z 27006KT M02/M06 A302 RMK A01 T10201058  RH  075%=      5-min Rain = 0
KBO1 201358Z 27006KT M02/M06 A302 RMK A01 T10201058  RH  075%=      5-min Rain = 0
KBO1 201359Z 27006KT M02/M06 A302 RMK A01 T10211058  RH  076%=      5-min Rain = 0
KBO1 201400Z 27006KT M02/M06 A3019 RMK A01 T10211058  RH  076%=      5-min Rain = 0
KBO1 201401Z 27005KT M02/M06 A3019 RMK A01 T10221058  RH  076%=      5-min Rain = 0
KBO1 201402Z 28005KT M02/M06 A3019 RMK A01 T10221058  RH  076%=      5-min Rain = 0
KBO1 201403Z 28005KT M02/M06 A3019 RMK A01 T10231058  RH  077%=      5-min Rain = 0
KBO1 201404Z 28005KT M02/M06 A3019 RMK A01 T10241058  RH  077%=      5-min Rain = 0
KBO1 201405Z 28005KT M02/M06 A3019 RMK A01 T10241058  RH  077%=      5-min Rain = 0
KBO1 201406Z 28005KT M02/M06 A3019 RMK A01 T10241058  RH  078%=      5-min Rain = 0
KBO1 201407Z 27005KT M03/M06 A3019 RMK A01 T10251058  RH  078%=      5-min Rain = 0
KBO1 201408Z 27005KT M03/M06 A3019 RMK A01 T10261058  RH  078%=      5-min Rain = 0
KBO1 201409Z 27005KT M03/M06 A3019 RMK A01 T10251058  RH  078%=      5-min Rain = 0
KBO1 201410Z 27005KT M03/M06 A3019 RMK A01 T10261058  RH  079%=      5-min Rain = 0
KBO1 201411Z 27005KT M03/M06 A3019 RMK A01 T10261058  RH  079%=      5-min Rain = 0
KBO1 201412Z 27005KT M03/M06 A3019 RMK A01 T10261058  RH  079%=      5-min Rain = 0
KBO1 201413Z 27004KT M03/M06 A3019 RMK A01 T10271058  RH  079%=      5-min Rain = 0
KBO1 201414Z 27004KT M03/M06 A3019 RMK A01 T10271058  RH  079%=      5-min Rain = 0
KBO1 201415Z 27005KT M03/M06 A3019 RMK A01 T10271058  RH  079%=      5-min Rain = 0
KBO1 201416Z 26004KT M03/M06 A3019 RMK A01 T10271058  RH  080%=      5-min Rain = 0
KBO1 201417Z 26004KT M03/M06 A3019 RMK A01 T10271057  RH  080%=      5-min Rain = 0
KBO1 201418Z 25004KT M03/M06 A3019 RMK A01 T10281057  RH  080%=      5-min Rain = 0
KBO1 201419Z 25004KT M03/M06 A3019 RMK A01 T10281057  RH  080%=      5-min Rain = 0
KBO1 201420Z 24003KT M03/M06 A3019 RMK A01 T10281057  RH  080%=      5-min Rain = 0
KBO1 201421Z 24003KT M03/M06 A3019 RMK A01 T10281057  RH  080%=      5-min Rain = 0
KBO1 201422Z 24004KT M03/M06 A3019 RMK A01 T10281057  RH  080%=      5-min Rain = 0
KBO1 201423Z 23004KT M03/M06 A3019 RMK A01 T10281057  RH  081%=      5-min Rain = 0
KBO1 201424Z 23005KT M03/M06 A3019 RMK A01 T10281057  RH  081%=      5-min Rain = 0
KBO1 201425Z 22004KT M03/M06 A3019 RMK A01 T10281057  RH  081%=      5-min Rain = 0
KBO1 201426Z 22005KT M03/M06 A3019 RMK A01 T10281056  RH  081%=      5-min Rain = 0
KBO1 201427Z 22006KT M03/M06 A3019 RMK A01 T10271055  RH  081%=      5-min Rain = 0
KBO1 201428Z 23006KT M03/M06 A3019 RMK A01 T10271055  RH  081%=      5-min Rain = 0
KBO1 201429Z 23006KT M03/M06 A3019 RMK A01 T10271055  RH  081%=      5-min Rain = 0
KBO1 201430Z 24006KT M03/M05 A3019 RMK A01 T10261054  RH  081%=      5-min Rain = 0
KBO1 201431Z 24006KT M03/M05 A3019 RMK A01 T10251053  RH  081%=      5-min Rain = 0
KBO1 201432Z 23006KT M02/M05 A3019 RMK A01 T10241053  RH  081%=      5-min Rain = 0
KBO1 201433Z 24006KT M02/M05 A3019 RMK A01 T10221052  RH  080%=      5-min Rain = 0
KBO1 201434Z 23007KT M02/M05 A302 RMK A01 T10201052  RH  079%=      5-min Rain = 0
KBO1 201435Z 24005KT M02/M05 A302 RMK A01 T10191051  RH  078%=      5-min Rain = 0
KBO1 201436Z 24006KT M02/M05 A3019 RMK A01 T10181051  RH  078%=      5-min Rain = 0
KBO1 201437Z 24006KT M02/M05 A3019 RMK A01 T10171051  RH  078%=      5-min Rain = 0
KBO1 201438Z 24007KT M02/M05 A3019 RMK A01 T10171052  RH  077%=      5-min Rain = 0
KBO1 201439Z 24007KT M02/M05 A3019 RMK A01 T10161051  RH  077%=      5-min Rain = 0
KBO1 201440Z 24007KT M02/M05 A3019 RMK A01 T10161051  RH  077%=      5-min Rain = 0
KBO1 201441Z 24006KT M01/M05 A3019 RMK A01 T10141051  RH  076%=      5-min Rain = 0
KBO1 201442Z 24006KT M01/M05 A3019 RMK A01 T10131051  RH  076%=      5-min Rain = 0
KBO1 201443Z 24006KT M01/M05 A3019 RMK A01 T10121051  RH  075%=      5-min Rain = 0
KBO1 201444Z 24006KT M01/M05 A3019 RMK A01 T10121051  RH  075%=      5-min Rain = 0
KBO1 201445Z 25006KT M01/M05 A3019 RMK A01 T10111050  RH  075%=      5-min Rain = 0
KBO1 201446Z 25006KT M01/M05 A3019 RMK A01 T10111050  RH  075%=      5-min Rain = 0
KBO1 201447Z 25006KT M01/M05 A3019 RMK A01 T10111050  RH  075%=      5-min Rain = 0
KBO1 201448Z 26006KT M01/M05 A3019 RMK A01 T10101050  RH  074%=      5-min Rain = 0
KBO1 201449Z 26007KT M01/M05 A3019 RMK A01 T10091049  RH  074%=      5-min Rain = 0
KBO1 201450Z 26006KT M01/M05 A3019 RMK A01 T10091049  RH  074%=      5-min Rain = 0
KBO1 201451Z 26006KT M01/M05 A3019 RMK A01 T10091049  RH  074%=      5-min Rain = 0
KBO1 201452Z 26006KT M01/M05 A3019 RMK A01 T10081048  RH  074%=      5-min Rain = 0
KBO1 201453Z 25005KT M01/M05 A3019 RMK A01 T10081048  RH  074%=      5-min Rain = 0
KBO1 201454Z 25004KT M01/M05 A3019 RMK A01 T10071047  RH  074%=      5-min Rain = 0
KBO1 201455Z 24004KT M01/M05 A3019 RMK A01 T10061047  RH  074%=      5-min Rain = 0
KBO1 201456Z 23004KT M01/M05 A3019 RMK A01 T10051048  RH  073%=      5-min Rain = 0
KBO1 201457Z 23004KT M01/M05 A3019 RMK A01 T10051047  RH  073%=      5-min Rain = 0
KBO1 201458Z 22004KT M00/M05 A3019 RMK A01 T10041047  RH  073%=      5-min Rain = 0
KBO1 201459Z 23004KT M00/M05 A3019 RMK A01 T10041047  RH  073%=      5-min Rain = 0
KBO1 201500Z 24004KT M00/M05 A3019 RMK A01 T10031047  RH  072%=      5-min Rain = 0
KBO1 201501Z 24003KT M00/M05 A3019 RMK A01 T10031046  RH  073%=      5-min Rain = 0
KBO1 201502Z 25003KT M00/M05 A3019 RMK A01 T10021045  RH  073%=      5-min Rain = 0
KBO1 201503Z 26004KT M00/M05 A3019 RMK A01 T10021045  RH  073%=      5-min Rain = 0
KBO1 201504Z 25004KT M00/M05 A3019 RMK A01 T10011045  RH  072%=      5-min Rain = 0
KBO1 201505Z 25004KT M00/M05 A3018 RMK A01 T10011045  RH  072%=      5-min Rain = 0
KBO1 201506Z 26005KT 00/05 A3018 RMK A01 T00000-45  RH  072%=      5-min Rain = 0
KBO1 201507Z 26006KT 00/M05 A3018 RMK A01 T00011045  RH  071%=      5-min Rain = 0
KBO1 201508Z 26006KT 00/M05 A3018 RMK A01 T00011046  RH  071%=      5-min Rain = 0
KBO1 201509Z 25006KT 00/M05 A3018 RMK A01 T00031045  RH  070%=      5-min Rain = 0
KBO1 201510Z 25006KT 00/M05 A3018 RMK A01 T00041045  RH  070%=      5-min Rain = 0
KBO1 201511Z 25007KT 01/M05 A3018 RMK A01 T00051045  RH  069%=      5-min Rain = 0
KBO1 201512Z 25006KT 01/M05 A3018 RMK A01 T00051045  RH  069%=      5-min Rain = 0
KBO1 201513Z 25007KT 01/M05 A3018 RMK A01 T00061045  RH  069%=      5-min Rain = 0
KBO1 201514Z 26005KT 01/M04 A3018 RMK A01 T00061044  RH  069%=      5-min Rain = 0
KBO1 201515Z 26005KT 01/M04 A3018 RMK A01 T00071042  RH  070%=      5-min Rain = 0
KBO1 201516Z 25006KT 01/M04 A3018 RMK A01 T00061042  RH  070%=      5-min Rain = 0
KBO1 201517Z 25006KT 01/M04 A3018 RMK A01 T00061042  RH  070%=      5-min Rain = 0
KBO1 201518Z 25006KT 01/M04 A3018 RMK A01 T00061042  RH  070%=      5-min Rain = 0
KBO1 201519Z 26006KT 01/M04 A3018 RMK A01 T00071042  RH  070%=      5-min Rain = 0
KBO1 201520Z 26006KT 01/M04 A3018 RMK A01 T00071042  RH  070%=      5-min Rain = 0
KBO1 201521Z 26006KT 01/M04 A3018 RMK A01 T00081042  RH  069%=      5-min Rain = 0
KBO1 201522Z 27007KT 01/M04 A3018 RMK A01 T00081041  RH  070%=      5-min Rain = 0
KBO1 201523Z 27008KT 01/M04 A3018 RMK A01 T00081042  RH  069%=      5-min Rain = 0
KBO1 201524Z 27007KT 01/M04 A3018 RMK A01 T00091042  RH  069%=      5-min Rain = 0
KBO1 201525Z 27006KT 01/M04 A3018 RMK A01 T00091040  RH  070%=      5-min Rain = 0
KBO1 201526Z 27006KT 01/M04 A3018 RMK A01 T00101040  RH  070%=      5-min Rain = 0
KBO1 201527Z 27006KT 01/M04 A3018 RMK A01 T00101040  RH  069%=      5-min Rain = 0
KBO1 201528Z 27005KT 01/M04 A3018 RMK A01 T00111039  RH  069%=      5-min Rain = 0
KBO1 201529Z 28004KT 01/M04 A3018 RMK A01 T00111039  RH  069%=      5-min Rain = 0
KBO1 201530Z 28004KT 01/M04 A3018 RMK A01 T00121038  RH  069%=      5-min Rain = 0
KBO1 201531Z 28003KT 01/M04 A3018 RMK A01 T00121038  RH  069%=      5-min Rain = 0
KBO1 201532Z 29003KT 01/M04 A3018 RMK A01 T00131037  RH  069%=      5-min Rain = 0
KBO1 201533Z 29003KT 01/M04 A3018 RMK A01 T00131037  RH  069%=      5-min Rain = 0
KBO1 201534Z 30003KT 01/M04 A3018 RMK A01 T00141037  RH  069%=      5-min Rain = 0
KBO1 201535Z 29003KT 01/M04 A3018 RMK A01 T00141037  RH  069%=      5-min Rain = 0
KBO1 201536Z 29003KT 02/M04 A3018 RMK A01 T00151036  RH  069%=      5-min Rain = 0
KBO1 201537Z 28004KT 02/M04 A3018 RMK A01 T00161035  RH  069%=      5-min Rain = 0
KBO1 201538Z 28003KT 02/M04 A3018 RMK A01 T00161036  RH  068%=      5-min Rain = 0
KBO1 201539Z 27003KT 02/M04 A3018 RMK A01 T00171035  RH  069%=      5-min Rain = 0
KBO1 201540Z 27003KT 02/M04 A3018 RMK A01 T00181035  RH  068%=      5-min Rain = 0
KBO1 201541Z 26003KT 02/M04 A3018 RMK A01 T00181035  RH  068%=      5-min Rain = 0
KBO1 201542Z 27003KT 02/M03 A3018 RMK A01 T00191034  RH  068%=      5-min Rain = 0
KBO1 201543Z 27003KT 02/M03 A3018 RMK A01 T00201033  RH  068%=      5-min Rain = 0
KBO1 201544Z 28004KT 02/M03 A3018 RMK A01 T00211033  RH  067%=      5-min Rain = 0
KBO1 201545Z 28003KT 02/M03 A3018 RMK A01 T00221034  RH  067%=      5-min Rain = 0
KBO1 201546Z 28003KT 02/M03 A3018 RMK A01 T00231033  RH  066%=      5-min Rain = 0
KBO1 201547Z 28003KT 03/M03 A3018 RMK A01 T00251034  RH  065%=      5-min Rain = 0
KBO1 201548Z 29003KT 03/M04 A3018 RMK A01 T00261035  RH  064%=      5-min Rain = 0
KBO1 201549Z 30003KT 03/M03 A3018 RMK A01 T00281033  RH  064%=      5-min Rain = 0
KBO1 201550Z 30003KT 03/M03 A3018 RMK A01 T00291032  RH  064%=      5-min Rain = 0
KBO1 201551Z 30003KT 03/M03 A3018 RMK A01 T00311034  RH  062%=      5-min Rain = 0
KBO1 201552Z 30004KT 03/M04 A3018 RMK A01 T00331036  RH  061%=      5-min Rain = 0
KBO1 201553Z 31003KT 03/M04 A3018 RMK A01 T00341036  RH  060%=      5-min Rain = 0
KBO1 201554Z 32002KT 04/M03 A3018 RMK A01 T00351034  RH  061%=      5-min Rain = 0
KBO1 201555Z 32003KT 04/M03 A3018 RMK A01 T00361034  RH  060%=      5-min Rain = 0
KBO1 201556Z 31003KT 04/M04 A3018 RMK A01 T00371035  RH  059%=      5-min Rain = 0
KBO1 201557Z 30003KT 04/M03 A3018 RMK A01 T00381033  RH  060%=      5-min Rain = 0
KBO1 201558Z 27002KT 04/M03 A3018 RMK A01 T00381033  RH  060%=      5-min Rain = 0
KBO1 201559Z 25002KT 04/M03 A3018 RMK A01 T00391033  RH  060%=      5-min Rain = 0
KBO1 201600Z 25002KT 04/M03 A3018 RMK A01 T00401033  RH  059%=      5-min Rain = 0
KBO1 201601Z 24002KT 04/M03 A3018 RMK A01 T00411031  RH  059%=      5-min Rain = 0
KBO1 201602Z 27002KT 04/M03 A3018 RMK A01 T00421032  RH  059%=      5-min Rain = 0
KBO1 201603Z 29000KT 04/M03 A3018 RMK A01 T00431033  RH  058%=      5-min Rain = 0
KBO1 201604Z 33000KT 04/M04 A3018 RMK A01 T00431035  RH  057%=      5-min Rain = 0
KBO1 201605Z 29000KT 04/M03 A3018 RMK A01 T00441034  RH  057%=      5-min Rain = 0
KBO1 201606Z 00000KT 05/M03 A3018 RMK A01 T00461031  RH  057%=      5-min Rain = 0
KBO1 201607Z 22001KT 05/M03 A3018 RMK A01 T00461034  RH  056%=      5-min Rain = 0
KBO1 201608Z 23002KT 05/M04 A3018 RMK A01 T00471035  RH  055%=      5-min Rain = 0
KBO1 201609Z 22003KT 05/M04 A3018 RMK A01 T00461036  RH  055%=      5-min Rain = 0
KBO1 201610Z 22004KT 05/M04 A3018 RMK A01 T00461037  RH  055%=      5-min Rain = 0
KBO1 201611Z 22004KT 05/M04 A3018 RMK A01 T00461038  RH  055%=      5-min Rain = 0
KBO1 201612Z 22003KT 05/M03 A3018 RMK A01 T00461034  RH  056%=      5-min Rain = 0
KBO1 201613Z 21002KT 05/M03 A3018 RMK A01 T00471031  RH  057%=      5-min Rain = 0
KBO1 201614Z 18001KT 05/M03 A3018 RMK A01 T00471032  RH  056%=      5-min Rain = 0
KBO1 201615Z 14002KT 05/M03 A3018 RMK A01 T00491032  RH  056%=      5-min Rain = 0
KBO1 201616Z 15004KT 05/M03 A3018 RMK A01 T00501027  RH  058%=      5-min Rain = 0
KBO1 201617Z 16004KT 05/M02 A3018 RMK A01 T00511020  RH  060%=      5-min Rain = 0
KBO1 201618Z 17004KT 05/M02 A3018 RMK A01 T00521022  RH  059%=      5-min Rain = 0
KBO1 201619Z 18003KT 05/M03 A3018 RMK A01 T00491027  RH  058%=      5-min Rain = 0
KBO1 201620Z 20004KT 05/M03 A3018 RMK A01 T00481026  RH  058%=      5-min Rain = 0
KBO1 201621Z 20003KT 05/M03 A3018 RMK A01 T00471028  RH  058%=      5-min Rain = 0
KBO1 201622Z 20003KT 05/M03 A3017 RMK A01 T00471029  RH  058%=      5-min Rain = 0
KBO1 201623Z 20003KT 05/M03 A3018 RMK A01 T00471029  RH  058%=      5-min Rain = 0
KBO1 201624Z 17003KT 05/M03 A3018 RMK A01 T00471029  RH  058%=      5-min Rain = 0
KBO1 201625Z 17003KT 05/M03 A3018 RMK A01 T00491030  RH  057%=      5-min Rain = 0
KBO1 201626Z 17003KT 05/M03 A3018 RMK A01 T00501029  RH  057%=      5-min Rain = 0
KBO1 201627Z 18003KT 05/M03 A3018 RMK A01 T00511028  RH  056%=      5-min Rain = 0
KBO1 201628Z 19002KT 05/M03 A3017 RMK A01 T00531029  RH  056%=      5-min Rain = 0
KBO1 201629Z 19002KT 05/M03 A3017 RMK A01 T00531030  RH  055%=      5-min Rain = 0
KBO1 201630Z 21004KT 05/M02 A3017 RMK A01 T00531023  RH  058%=      5-min Rain = 0
KBO1 201631Z 20004KT 05/M02 A3017 RMK A01 T00521021  RH  059%=      5-min Rain = 0
KBO1 201632Z 18004KT 05/M02 A3017 RMK A01 T00511020  RH  060%=      5-min Rain = 0
KBO1 201633Z 19004KT 05/M02 A3017 RMK A01 T00511018  RH  061%=      5-min Rain = 0
KBO1 201634Z 19003KT 05/M02 A3017 RMK A01 T00521020  RH  059%=      5-min Rain = 0
KBO1 201635Z 20004KT 05/M02 A3017 RMK A01 T00521024  RH  058%=      5-min Rain = 0
KBO1 201636Z 20004KT 05/M03 A3017 RMK A01 T00521026  RH  057%=      5-min Rain = 0
KBO1 201637Z 22004KT 05/M03 A3017 RMK A01 T00521025  RH  057%=      5-min Rain = 0
KBO1 201638Z 21004KT 05/M02 A3017 RMK A01 T00531024  RH  058%=      5-min Rain = 0
KBO1 201639Z 21004KT 05/M03 A3018 RMK A01 T00541025  RH  057%=      5-min Rain = 0
KBO1 201640Z 22004KT 05/M03 A3018 RMK A01 T00541025  RH  057%=      5-min Rain = 0
KBO1 201641Z 22003KT 05/M03 A3017 RMK A01 T00541025  RH  057%=      5-min Rain = 0
KBO1 201642Z 23004KT 06/M02 A3017 RMK A01 T00551021  RH  058%=      5-min Rain = 0
KBO1 201643Z 23004KT 06/M02 A3017 RMK A01 T00561023  RH  056%=      5-min Rain = 0
KBO1 201644Z 23004KT 06/M02 A3017 RMK A01 T00571023  RH  057%=      5-min Rain = 0
KBO1 201645Z 23005KT 06/M02 A3017 RMK A01 T00581023  RH  056%=      5-min Rain = 0
KBO1 201646Z 23005KT 06/M03 A3017 RMK A01 T00581025  RH  055%=      5-min Rain = 0
KBO1 201647Z 23005KT 06/M02 A3017 RMK A01 T00591024  RH  055%=      5-min Rain = 0
KBO1 201648Z 23004KT 06/M02 A3018 RMK A01 T00601024  RH  055%=      5-min Rain = 0
KBO1 201649Z 23004KT 06/M03 A3018 RMK A01 T00611025  RH  054%=      5-min Rain = 0
KBO1 201650Z 24004KT 06/M02 A3018 RMK A01 T00611023  RH  055%=      5-min Rain = 0
KBO1 201651Z 23003KT 06/M02 A3018 RMK A01 T00631022  RH  054%=      5-min Rain = 0
KBO1 201652Z 25004KT 07/M02 A3018 RMK A01 T00651022  RH  054%=      5-min Rain = 0
KBO1 201653Z 24003KT 07/M02 A3018 RMK A01 T00651022  RH  053%=      5-min Rain = 0
KBO1 201654Z 23003KT 07/M02 A3018 RMK A01 T00661023  RH  053%=      5-min Rain = 0
KBO1 201655Z 22003KT 07/M02 A3018 RMK A01 T00671022  RH  053%=      5-min Rain = 0
KBO1 201656Z 22003KT 07/M02 A3018 RMK A01 T00671022  RH  053%=      5-min Rain = 0
KBO1 201657Z 23004KT 07/M02 A3018 RMK A01 T00681020  RH  053%=      5-min Rain = 0
KBO1 201658Z 23003KT 07/M03 A3018 RMK A01 T00691025  RH  051%=      5-min Rain = 0
KBO1 201659Z 23003KT 07/M02 A3018 RMK A01 T00691023  RH  052%=      5-min Rain = 0
KBO1 201700Z 23004KT 07/M02 A3018 RMK A01 T00701023  RH  051%=      5-min Rain = 0
KBO1 201701Z 22004KT 07/M02 A3018 RMK A01 T00721024  RH  051%=      5-min Rain = 0
KBO1 201702Z 22004KT 07/M02 A3018 RMK A01 T00721019  RH  052%=      5-min Rain = 0
KBO1 201703Z 22003KT 07/M02 A3018 RMK A01 T00731019  RH  052%=      5-min Rain = 0
KBO1 201704Z 22003KT 07/M02 A3018 RMK A01 T00731023  RH  050%=      5-min Rain = 0
KBO1 201705Z 21004KT 07/M02 A3018 RMK A01 T00731024  RH  050%=      5-min Rain = 0
KBO1 201706Z 23004KT 07/M02 A3018 RMK A01 T00731022  RH  051%=      5-min Rain = 0
KBO1 201707Z 23004KT 07/M02 A3017 RMK A01 T00741023  RH  050%=      5-min Rain = 0
KBO1 201708Z 24004KT 08/M02 A3017 RMK A01 T00781019  RH  051%=      5-min Rain = 0
KBO1 201709Z 22005KT 08/M02 A3017 RMK A01 T00801020  RH  049%=      5-min Rain = 0
KBO1 201710Z 21005KT 08/M02 A3017 RMK A01 T00811020  RH  049%=      5-min Rain = 0
KBO1 201711Z 22004KT 08/M02 A3017 RMK A01 T00801022  RH  049%=      5-min Rain = 0
KBO1 201712Z 22003KT 08/M02 A3017 RMK A01 T00791016  RH  051%=      5-min Rain = 0
KBO1 201713Z 19004KT 08/M02 A3018 RMK A01 T00801016  RH  051%=      5-min Rain = 0
KBO1 201714Z 19004KT 08/M02 A3018 RMK A01 T00801019  RH  049%=      5-min Rain = 0
KBO1 201715Z 20004KT 08/M02 A3018 RMK A01 T00801017  RH  050%=      5-min Rain = 0
KBO1 201716Z 19003KT 08/M02 A3018 RMK A01 T00811016  RH  050%=      5-min Rain = 0
KBO1 201717Z 20003KT 08/M02 A3018 RMK A01 T00821015  RH  050%=      5-min Rain = 0
KBO1 201718Z 18004KT 08/M01 A3018 RMK A01 T00831012  RH  051%=      5-min Rain = 0
KBO1 201719Z 17003KT 08/M01 A3018 RMK A01 T00841013  RH  051%=      5-min Rain = 0
KBO1 201720Z 20003KT 08/M01 A3018 RMK A01 T00841010  RH  051%=      5-min Rain = 0
KBO1 201721Z 19004KT 09/M01 A3018 RMK A01 T00851012  RH  050%=      5-min Rain = 0
KBO1 201722Z 18004KT 09/M01 A3018 RMK A01 T00851013  RH  050%=      5-min Rain = 0
KBO1 201723Z 23006KT 09/M01 A3018 RMK A01 T00851014  RH  050%=      5-min Rain = 0
KBO1 201724Z 23004KT 09/M01 A3018 RMK A01 T00851012  RH  050%=      5-min Rain = 0
KBO1 201725Z 22005KT 09/M01 A3018 RMK A01 T00861009  RH  051%=      5-min Rain = 0
KBO1 201726Z 22004KT 09/M01 A3018 RMK A01 T00871010  RH  050%=      5-min Rain = 0
KBO1 201727Z 21005KT 09/M01 A3018 RMK A01 T00881012  RH  049%=      5-min Rain = 0
KBO1 201728Z 20003KT 09/M01 A3018 RMK A01 T00881013  RH  049%=      5-min Rain = 0
KBO1 201729Z 20004KT 09/M01 A3018 RMK A01 T00891011  RH  050%=      5-min Rain = 0
KBO1 201730Z 20006KT 09/M01 A3018 RMK A01 T00901011  RH  049%=      5-min Rain = 0
KBO1 201731Z 20007KT 09/M01 A3018 RMK A01 T00901012  RH  049%=      5-min Rain = 0
KBO1 201732Z 20007KT 09/M01 A3018 RMK A01 T00901014  RH  048%=      5-min Rain = 0
KBO1 201733Z 21006KT 09/M02 A3018 RMK A01 T00891015  RH  048%=      5-min Rain = 0
KBO1 201734Z 20005KT 09/M02 A3018 RMK A01 T00881016  RH  048%=      5-min Rain = 0
KBO1 201735Z 19007KT 09/M01 A3018 RMK A01 T00871014  RH  049%=      5-min Rain = 0
KBO1 201736Z 19006KT 09/M02 A3018 RMK A01 T00861016  RH  049%=      5-min Rain = 0
KBO1 201737Z 18006KT 09/M02 A3017 RMK A01 T00861015  RH  049%=      5-min Rain = 0
KBO1 201738Z 17006KT 09/M02 A3017 RMK A01 T00851015  RH  049%=      5-min Rain = 0
KBO1 201739Z 18006KT 09/M02 A3017 RMK A01 T00861018  RH  048%=      5-min Rain = 0
KBO1 201740Z 20006KT 09/M02 A3017 RMK A01 T00851017  RH  049%=      5-min Rain = 0
KBO1 201741Z 19006KT 09/M01 A3017 RMK A01 T00851014  RH  050%=      5-min Rain = 0
KBO1 201742Z 18006KT 09/M02 A3017 RMK A01 T00861015  RH  049%=      5-min Rain = 0
KBO1 201743Z 19006KT 09/M02 A3017 RMK A01 T00861016  RH  049%=      5-min Rain = 0
KBO1 201744Z 19006KT 09/M02 A3017 RMK A01 T00861015  RH  049%=      5-min Rain = 0
KBO1 201745Z 19007KT 09/M02 A3017 RMK A01 T00861017  RH  048%=      5-min Rain = 0
KBO1 201746Z 19006KT 09/M02 A3017 RMK A01 T00861018  RH  048%=      5-min Rain = 0
KBO1 201747Z 20006KT 09/M02 A3017 RMK A01 T00861018  RH  048%=      5-min Rain = 0
KBO1 201748Z 21006KT 09/M02 A3017 RMK A01 T00881016  RH  048%=      5-min Rain = 0
KBO1 201749Z 20005KT 09/M02 A3017 RMK A01 T00901015  RH  048%=      5-min Rain = 0
KBO1 201750Z 20006KT 09/M02 A3017 RMK A01 T00911017  RH  047%=      5-min Rain = 0
KBO1 201751Z 21006KT 09/M02 A3016 RMK A01 T00921017  RH  047%=      5-min Rain = 0
KBO1 201752Z 22004KT 09/M02 A3016 RMK A01 T00911018  RH  046%=      5-min Rain = 0
KBO1 201753Z 20005KT 09/M02 A3016 RMK A01 T00921018  RH  046%=      5-min Rain = 0
KBO1 201754Z 18005KT 09/M02 A3016 RMK A01 T00921015  RH  047%=      5-min Rain = 0
KBO1 201755Z 18006KT 09/M02 A3016 RMK A01 T00931015  RH  047%=      5-min Rain = 0
KBO1 201756Z 20006KT 09/M02 A3016 RMK A01 T00931018  RH  046%=      5-min Rain = 0
KBO1 201757Z 22005KT 09/M02 A3016 RMK A01 T00931022  RH  045%=      5-min Rain = 0
KBO1 201758Z 22005KT 09/M02 A3016 RMK A01 T00921022  RH  045%=      5-min Rain = 0
KBO1 201759Z 22004KT 09/M02 A3016 RMK A01 T00921020  RH  045%=      5-min Rain = 0
KBO1 201800Z 20003KT 09/M02 A3017 RMK A01 T00921024  RH  044%=      5-min Rain = 0
KBO1 201801Z 20004KT 09/M02 A3017 RMK A01 T00921019  RH  046%=      5-min Rain = 0
KBO1 201802Z 19005KT 09/M02 A3016 RMK A01 T00931016  RH  046%=      5-min Rain = 0
KBO1 201803Z 21005KT 09/M02 A3016 RMK A01 T00931018  RH  046%=      5-min Rain = 0
KBO1 201804Z 21007KT 09/M02 A3016 RMK A01 T00931017  RH  046%=      5-min Rain = 0
KBO1 201805Z 21006KT 09/M02 A3016 RMK A01 T00931018  RH  046%=      5-min Rain = 0
KBO1 201806Z 22004KT 09/M02 A3016 RMK A01 T00921021  RH  045%=      5-min Rain = 0
KBO1 201807Z 23003KT 09/M02 A3016 RMK A01 T00921021  RH  045%=      5-min Rain = 0
KBO1 201808Z 20004KT 09/M02 A3016 RMK A01 T00921016  RH  047%=      5-min Rain = 0
KBO1 201809Z 19003KT 09/M02 A3016 RMK A01 T00941015  RH  047%=      5-min Rain = 0
KBO1 201810Z 20005KT 09/M02 A3016 RMK A01 T00941016  RH  046%=      5-min Rain = 0
KBO1 201811Z 21005KT 10/M02 A3016 RMK A01 T00951015  RH  046%=      5-min Rain = 0
KBO1 201812Z 21006KT 09/M02 A3016 RMK A01 T00941016  RH  046%=      5-min Rain = 0
KBO1 201813Z 20005KT 09/M01 A3016 RMK A01 T00941013  RH  047%=      5-min Rain = 0
KBO1 201814Z 19005KT 09/M01 A3016 RMK A01 T00941013  RH  047%=      5-min Rain = 0
KBO1 201815Z 19004KT 09/M01 A3016 RMK A01 T00941014  RH  047%=      5-min Rain = 0
KBO1 201816Z 19004KT 09/M01 A3016 RMK A01 T00941014  RH  047%=      5-min Rain = 0
KBO1 201817Z 18005KT 10/M01 A3016 RMK A01 T00951013  RH  047%=      5-min Rain = 0
KBO1 201818Z 19007KT 10/M01 A3016 RMK A01 T00951013  RH  047%=      5-min Rain = 0
KBO1 201819Z 20007KT 10/M01 A3016 RMK A01 T00951011  RH  047%=      5-min Rain = 0
KBO1 201820Z 19007KT 09/M01 A3016 RMK A01 T00941008  RH  049%=      5-min Rain = 0
KBO1 201821Z 20006KT 10/M00 A3016 RMK A01 T00961003  RH  050%=      5-min Rain = 0
KBO1 201822Z 18006KT 10/M00 A3016 RMK A01 T00981004  RH  049%=      5-min Rain = 0
KBO1 201823Z 19007KT 10/M00 A3016 RMK A01 T01001002  RH  049%=      5-min Rain = 0
KBO1 201824Z 19006KT 10/M00 A3016 RMK A01 T01021001  RH  049%=      5-min Rain = 0
KBO1 201825Z 20007KT 10/M01 A3016 RMK A01 T01031005  RH  047%=      5-min Rain = 0
KBO1 201826Z 21007KT 10/M01 A3016 RMK A01 T01011008  RH  047%=      5-min Rain = 0
KBO1 201827Z 20006KT 10/M01 A3016 RMK A01 T01011009  RH  047%=      5-min Rain = 0
KBO1 201828Z 20008KT 10/M01 A3015 RMK A01 T01011008  RH  047%=      5-min Rain = 0
KBO1 201829Z 21007KT 10/M01 A3015 RMK A01 T01011010  RH  046%=      5-min Rain = 0
KBO1 201830Z 20005KT 10/M01 A3015 RMK A01 T01011010  RH  046%=      5-min Rain = 0
KBO1 201831Z 19006KT 10/M01 A3015 RMK A01 T01011009  RH  046%=      5-min Rain = 0
KBO1 201832Z 22007KT 10/M01 A3015 RMK A01 T01031009  RH  046%=      5-min Rain = 0
KBO1 201833Z 23005KT 10/M02 A3015 RMK A01 T01031015  RH  044%=      5-min Rain = 0
KBO1 201834Z 21004KT 10/M01 A3015 RMK A01 T01021013  RH  045%=      5-min Rain = 0
KBO1 201835Z 20007KT 10/M01 A3015 RMK A01 T01031011  RH  045%=      5-min Rain = 0
KBO1 201836Z 20006KT 10/M01 A3015 RMK A01 T01041012  RH  045%=      5-min Rain = 0
KBO1 201837Z 21007KT 10/M01 A3014 RMK A01 T01041014  RH  044%=      5-min Rain = 0
KBO1 201838Z 20008KT 10/M02 A3014 RMK A01 T01031015  RH  044%=      5-min Rain = 0
KBO1 201839Z 21005KT 10/M02 A3014 RMK A01 T01021019  RH  043%=      5-min Rain = 0
KBO1 201840Z 19004KT 10/M02 A3014 RMK A01 T01001018  RH  044%=      5-min Rain = 0
KBO1 201841Z 19005KT 10/M02 A3014 RMK A01 T01001017  RH  044%=      5-min Rain = 0
KBO1 201842Z 20008KT 10/M01 A3014 RMK A01 T01011013  RH  045%=      5-min Rain = 0
KBO1 201843Z 21006KT 10/M01 A3014 RMK A01 T01021010  RH  046%=      5-min Rain = 0
KBO1 201844Z 21006KT 10/M01 A3014 RMK A01 T01021010  RH  046%=      5-min Rain = 0
KBO1 201845Z 21007KT 10/M01 A3014 RMK A01 T01021009  RH  046%=      5-min Rain = 0
KBO1 201846Z 21008KT 10/M01 A3014 RMK A01 T01031007  RH  046%=      5-min Rain = 0
KBO1 201847Z 20007KT 10/M01 A3014 RMK A01 T01021010  RH  046%=      5-min Rain = 0
KBO1 201848Z 19005KT 10/M01 A3014 RMK A01 T01011006  RH  047%=      5-min Rain = 0
KBO1 201849Z 19008KT 10/M01 A3014 RMK A01 T01021005  RH  047%=      5-min Rain = 0
KBO1 201850Z 20007KT 10/M01 A3014 RMK A01 T01031007  RH  047%=      5-min Rain = 0
KBO1 201851Z 19006KT 10/M01 A3014 RMK A01 T01031007  RH  046%=      5-min Rain = 0
KBO1 201852Z 19006KT 10/M01 A3014 RMK A01 T01021009  RH  046%=      5-min Rain = 0
KBO1 201853Z 20009KT 10/M01 A3014 RMK A01 T01021008  RH  046%=      5-min Rain = 0
KBO1 201854Z 20007KT 10/M01 A3014 RMK A01 T01021008  RH  046%=      5-min Rain = 0
KBO1 201855Z 20008KT 10/M01 A3014 RMK A01 T01021007  RH  046%=      5-min Rain = 0
KBO1 201856Z 19008KT 10/M01 A3013 RMK A01 T01031007  RH  047%=      5-min Rain = 0
KBO1 201857Z 19009KT 10/M01 A3013 RMK A01 T01031006  RH  047%=      5-min Rain = 0
KBO1 201858Z 19008KT 10/M01 A3013 RMK A01 T01031007  RH  046%=      5-min Rain = 0
KBO1 201859Z 20009KT 10/M00 A3013 RMK A01 T01041004  RH  047%=      5-min Rain = 0
KBO1 201900Z 20011KT 11/M01 A3013 RMK A01 T01051005  RH  046%=      5-min Rain = 0
KBO1 201901Z 20009KT 11/M01 A3013 RMK A01 T01051005  RH  046%=      5-min Rain = 0
KBO1 201902Z 20007KT 11/M00 A3013 RMK A01 T01061004  RH  046%=      5-min Rain = 0
KBO1 201903Z 20008KT 11/M00 A3013 RMK A01 T01071004  RH  046%=      5-min Rain = 0
KBO1 201904Z 19008KT 11/M01 A3013 RMK A01 T01061007  RH  045%=      5-min Rain = 0
KBO1 201905Z 19010KT 11/M01 A3013 RMK A01 T01051007  RH  046%=      5-min Rain = 0
KBO1 201906Z 19010KT 11/M01 A3013 RMK A01 T01051006  RH  046%=      5-min Rain = 0
KBO1 201907Z 19009KT 11/M01 A3013 RMK A01 T01051006  RH  046%=      5-min Rain = 0
KBO1 201908Z 19010KT 11/M01 A3013 RMK A01 T01051007  RH  046%=      5-min Rain = 0
KBO1 201909Z 20010KT 11/M01 A3013 RMK A01 T01061007  RH  046%=      5-min Rain = 0
KBO1 201910Z 19010KT 11/M01 A3013 RMK A01 T01071005  RH  046%=      5-min Rain = 0
KBO1 201911Z 19009KT 11/M01 A3013 RMK A01 T01081008  RH  045%=      5-min Rain = 0
KBO1 201912Z 19008KT 11/M01 A3013 RMK A01 T01091008  RH  044%=      5-min Rain = 0
KBO1 201913Z 21008KT 11/M01 A3013 RMK A01 T01101007  RH  044%=      5-min Rain = 0
KBO1 201914Z 21008KT 11/M01 A3013 RMK A01 T01111011  RH  043%=      5-min Rain = 0
KBO1 201915Z 22012KT 11/M01 A3012 RMK A01 T01101010  RH  043%=      5-min Rain = 0
KBO1 201916Z 22012KT 11/M01 A3012 RMK A01 T01111013  RH  042%=      5-min Rain = 0
KBO1 201917Z 20010KT 11/M02 A3012 RMK A01 T01101015  RH  042%=      5-min Rain = 0
KBO1 201918Z 21009KT 11/M01 A3012 RMK A01 T01091013  RH  042%=      5-min Rain = 0
KBO1 201919Z 21009KT 11/M02 A3012 RMK A01 T01091016  RH  042%=      5-min Rain = 0
KBO1 201920Z 22008KT 11/M01 A3012 RMK A01 T01091014  RH  042%=      5-min Rain = 0
KBO1 201921Z 21008KT 11/M01 A3012 RMK A01 T01111011  RH  043%=      5-min Rain = 0
KBO1 201922Z 21008KT 11/M02 A3012 RMK A01 T01111015  RH  041%=      5-min Rain = 0
KBO1 201923Z 20008G13KT 11/M01 A3012 RMK A01 T01111011  RH  043%=      5-min Rain = 0
KBO1 201924Z 22011KT 11/M01 A3012 RMK A01 T01111010  RH  043%=      5-min Rain = 0
KBO1 201925Z 23009KT 11/M01 A3012 RMK A01 T01121012  RH  042%=      5-min Rain = 0
KBO1 201926Z 23010KT 11/M02 A3012 RMK A01 T01121016  RH  041%=      5-min Rain = 0
KBO1 201927Z 23010KT 11/M02 A3012 RMK A01 T01121015  RH  041%=      5-min Rain = 0
KBO1 201928Z 21009KT 11/M02 A3012 RMK A01 T01101015  RH  042%=      5-min Rain = 0
KBO1 201929Z 23009KT 11/M02 A3012 RMK A01 T01101016  RH  042%=      5-min Rain = 0
KBO1 201930Z 21011KT 11/M02 A3012 RMK A01 T01101017  RH  041%=      5-min Rain = 0
KBO1 201931Z 22011KT 11/M02 A3012 RMK A01 T01101017  RH  041%=      5-min Rain = 0
KBO1 201932Z 22009KT 11/M01 A3012 RMK A01 T01091014  RH  042%=      5-min Rain = 0
KBO1 201933Z 22010KT 11/M01 A3011 RMK A01 T01121012  RH  042%=      5-min Rain = 0
KBO1 201934Z 22012KT 11/M01 A3011 RMK A01 T01131014  RH  041%=      5-min Rain = 0
KBO1 201935Z 22009KT 11/M02 A3011 RMK A01 T01141016  RH  040%=      5-min Rain = 0
KBO1 201936Z 22009KT 11/M02 A3011 RMK A01 T01141015  RH  041%=      5-min Rain = 0
KBO1 201937Z 22010KT 11/M02 A3011 RMK A01 T01141015  RH  041%=      5-min Rain = 0
KBO1 201938Z 21010KT 11/M01 A3011 RMK A01 T01141014  RH  041%=      5-min Rain = 0
KBO1 201939Z 21008KT 11/M02 A3011 RMK A01 T01141016  RH  040%=      5-min Rain = 0
KBO1 201940Z 22011KT 12/M01 A3011 RMK A01 T01151013  RH  041%=      5-min Rain = 0
KBO1 201941Z 22010KT 12/M01 A3011 RMK A01 T01181013  RH  040%=      5-min Rain = 0
KBO1 201942Z 21010KT 12/M02 A3011 RMK A01 T01171015  RH  040%=      5-min Rain = 0
KBO1 201943Z 21010KT 12/M02 A3011 RMK A01 T01171015  RH  040%=      5-min Rain = 0
KBO1 201944Z 23010KT 12/M02 A301 RMK A01 T01181016  RH  039%=      5-min Rain = 0
KBO1 201945Z 23009KT 12/M02 A301 RMK A01 T01191019  RH  038%=      5-min Rain = 0
KBO1 201946Z 22011KT 12/M02 A301 RMK A01 T01191017  RH  039%=      5-min Rain = 0
KBO1 201947Z 22011KT 12/M02 A301 RMK A01 T01191019  RH  038%=      5-min Rain = 0
KBO1 201948Z 22009KT 12/M02 A301 RMK A01 T01191023  RH  037%=      5-min Rain = 0
KBO1 201949Z 23010KT 12/M02 A301 RMK A01 T01201018  RH  038%=      5-min Rain = 0
KBO1 201950Z 23010KT 12/M02 A301 RMK A01 T01231017  RH  038%=      5-min Rain = 0
KBO1 201951Z 22012KT 12/M02 A301 RMK A01 T01241023  RH  036%=      5-min Rain = 0
KBO1 201952Z 23012KT 12/M02 A301 RMK A01 T01221024  RH  036%=      5-min Rain = 0
KBO1 201953Z 22011KT 12/M02 A301 RMK A01 T01201021  RH  038%=      5-min Rain = 0
KBO1 201954Z 21010KT 12/M02 A301 RMK A01 T01191019  RH  038%=      5-min Rain = 0
KBO1 201955Z 22009KT 12/M02 A301 RMK A01 T01191018  RH  039%=      5-min Rain = 0
KBO1 201956Z 22009KT 12/M02 A301 RMK A01 T01191019  RH  038%=      5-min Rain = 0
KBO1 201957Z 21010KT 12/M02 A301 RMK A01 T01191016  RH  039%=      5-min Rain = 0
KBO1 201958Z 23009KT 12/M01 A301 RMK A01 T01221013  RH  039%=      5-min Rain = 0
KBO1 201959Z 22009KT 12/M02 A301 RMK A01 T01231017  RH  038%=      5-min Rain = 0
KBO1 202000Z 22012KT 12/M02 A3009 RMK A01 T01241019  RH  037%=      5-min Rain = 0
KBO1 202001Z 23010KT 12/M02 A3009 RMK A01 T01231018  RH  037%=      5-min Rain = 0
KBO1 202002Z 22009KT 12/M02 A3009 RMK A01 T01231017  RH  038%=      5-min Rain = 0
KBO1 202003Z 23010KT 12/M01 A3009 RMK A01 T01241013  RH  039%=      5-min Rain = 0
KBO1 202004Z 23011KT 13/M01 A3009 RMK A01 T01261014  RH  038%=      5-min Rain = 0
KBO1 202005Z 22010KT 13/M02 A3009 RMK A01 T01261017  RH  037%=      5-min Rain = 0
KBO1 202006Z 21010KT 13/M01 A3009 RMK A01 T01271013  RH  038%=      5-min Rain = 0
KBO1 202007Z 22009KT 13/M01 A3009 RMK A01 T01291014  RH  037%=      5-min Rain = 0
KBO1 202008Z 22008KT 13/M02 A3009 RMK A01 T01311016  RH  036%=      5-min Rain = 0
KBO1 202009Z 22010KT 13/M02 A3009 RMK A01 T01311016  RH  036%=      5-min Rain = 0
KBO1 202010Z 22009KT 13/M02 A3009 RMK A01 T01311016  RH  036%=      5-min Rain = 0
KBO1 202011Z 24008G14KT 13/M02 A3009 RMK A01 T01311021  RH  035%=      5-min Rain = 0
KBO1 202012Z 23011KT 13/M02 A3009 RMK A01 T01341023  RH  034%=      5-min Rain = 0
KBO1 202013Z 21007KT 13/M03 A3009 RMK A01 T01331027  RH  033%=      5-min Rain = 0
KBO1 202014Z 22010KT 13/M02 A3009 RMK A01 T01321024  RH  034%=      5-min Rain = 0
KBO1 202015Z 22012KT 13/M03 A3008 RMK A01 T01321028  RH  033%=      5-min Rain = 0
KBO1 202016Z 23013KT 13/M03 A3008 RMK A01 T01331027  RH  033%=      5-min Rain = 0
KBO1 202017Z 23011KT 13/M02 A3008 RMK A01 T01341022  RH  034%=      5-min Rain = 0
KBO1 202018Z 23012KT 14/M02 A3008 RMK A01 T01371023  RH  033%=      5-min Rain = 0
KBO1 202019Z 23012KT 14/M03 A3008 RMK A01 T01361025  RH  033%=      5-min Rain = 0
KBO1 202020Z 23010KT 14/M02 A3008 RMK A01 T01351023  RH  033%=      5-min Rain = 0
KBO1 202021Z 24013KT 14/M03 A3008 RMK A01 T01371025  RH  033%=      5-min Rain = 0
KBO1 202022Z 23012KT 14/M03 A3008 RMK A01 T01361026  RH  032%=      5-min Rain = 0
KBO1 202023Z 23012KT 14/M03 A3008 RMK A01 T01351027  RH  032%=      5-min Rain = 0
KBO1 202024Z 23010KT 13/M03 A3008 RMK A01 T01331029  RH  032%=      5-min Rain = 0
KBO1 202025Z 21009KT 13/M02 A3008 RMK A01 T01331024  RH  033%=      5-min Rain = 0
KBO1 202026Z 22011KT 14/M02 A3008 RMK A01 T01351022  RH  034%=      5-min Rain = 0
KBO1 202027Z 23012KT 14/M02 A3008 RMK A01 T01371022  RH  033%=      5-min Rain = 0
KBO1 202028Z 24010KT 14/M03 A3008 RMK A01 T01351025  RH  033%=      5-min Rain = 0
KBO1 202029Z 24013KT 13/M02 A3008 RMK A01 T01341023  RH  034%=      5-min Rain = 0
KBO1 202030Z 24013KT 13/M02 A3008 RMK A01 T01341023  RH  034%=      5-min Rain = 0
KBO1 202031Z 24010KT 14/M02 A3008 RMK A01 T01351023  RH  033%=      5-min Rain = 0
KBO1 202032Z 24011KT 14/M03 A3008 RMK A01 T01371025  RH  033%=      5-min Rain = 0
KBO1 202033Z 23012KT 14/M02 A3008 RMK A01 T01361023  RH  033%=      5-min Rain = 0
KBO1 202034Z 22011KT 14/M02 A3008 RMK A01 T01371020  RH  034%=      5-min Rain = 0
KBO1 202035Z 24012KT 14/M02 A3008 RMK A01 T01381020  RH  034%=      5-min Rain = 0
KBO1 202036Z 24010KT 14/M02 A3008 RMK A01 T01391020  RH  033%=      5-min Rain = 0
KBO1 202037Z 23011KT 14/M02 A3007 RMK A01 T01411020  RH  033%=      5-min Rain = 0
KBO1 202038Z 23012KT 14/M02 A3007 RMK A01 T01411020  RH  033%=      5-min Rain = 0
KBO1 202039Z 22010KT 14/M02 A3007 RMK A01 T01401022  RH  033%=      5-min Rain = 0
KBO1 202040Z 22011KT 14/M02 A3007 RMK A01 T01381019  RH  034%=      5-min Rain = 0
KBO1 202041Z 24013KT 14/M02 A3007 RMK A01 T01381019  RH  034%=      5-min Rain = 0
KBO1 202042Z 24013KT 14/M02 A3007 RMK A01 T01371020  RH  034%=      5-min Rain = 0
KBO1 202043Z 23014KT 14/M02 A3007 RMK A01 T01371020  RH  034%=      5-min Rain = 0
KBO1 202044Z 23015KT 14/M02 A3007 RMK A01 T01361021  RH  034%=      5-min Rain = 0
KBO1 202045Z 23014KT 14/M02 A3007 RMK A01 T01351018  RH  035%=      5-min Rain = 0
KBO1 202046Z 23013KT 14/M02 A3007 RMK A01 T01361016  RH  035%=      5-min Rain = 0
KBO1 202047Z 23012KT 14/M02 A3007 RMK A01 T01371019  RH  034%=      5-min Rain = 0
KBO1 202048Z 24013KT 14/M02 A3007 RMK A01 T01371017  RH  034%=      5-min Rain = 0
KBO1 202049Z 24013KT 14/M01 A3007 RMK A01 T01381014  RH  035%=      5-min Rain = 0
KBO1 202050Z 23015KT 14/M02 A3007 RMK A01 T01391018  RH  034%=      5-min Rain = 0
KBO1 202051Z 24012KT 14/M02 A3007 RMK A01 T01391018  RH  034%=      5-min Rain = 0
KBO1 202052Z 23013KT 14/M02 A3007 RMK A01 T01391016  RH  034%=      5-min Rain = 0
KBO1 202053Z 23011KT 14/M01 A3007 RMK A01 T01391014  RH  035%=      5-min Rain = 0
KBO1 202054Z 24013KT 14/M01 A3007 RMK A01 T01411013  RH  035%=      5-min Rain = 0
KBO1 202055Z 24013KT 14/M02 A3007 RMK A01 T01411015  RH  034%=      5-min Rain = 0
KBO1 202056Z 24013KT 14/M02 A3007 RMK A01 T01411017  RH  034%=      5-min Rain = 0
KBO1 202057Z 24012KT 14/M02 A3007 RMK A01 T01391020  RH  033%=      5-min Rain = 0
KBO1 202058Z 23013KT 14/M02 A3007 RMK A01 T01381020  RH  033%=      5-min Rain = 0
KBO1 202059Z 23013KT 14/M02 A3007 RMK A01 T01381021  RH  033%=      5-min Rain = 0
KBO1 202100Z 23011KT 14/M02 A3007 RMK A01 T01381018  RH  034%=      5-min Rain = 0
KBO1 202101Z 23015KT 14/M02 A3006 RMK A01 T01391016  RH  034%=      5-min Rain = 0
KBO1 202102Z 24012KT 14/M02 A3007 RMK A01 T01401017  RH  034%=      5-min Rain = 0
KBO1 202103Z 23012KT 14/M02 A3007 RMK A01 T01401018  RH  033%=      5-min Rain = 0
KBO1 202104Z 23014KT 14/M02 A3007 RMK A01 T01431018  RH  033%=      5-min Rain = 0
KBO1 202105Z 24013KT 14/M02 A3007 RMK A01 T01431022  RH  032%=      5-min Rain = 0
KBO1 202106Z 23012KT 14/M02 A3007 RMK A01 T01421022  RH  032%=      5-min Rain = 0
KBO1 202107Z 23013KT 14/M02 A3007 RMK A01 T01421022  RH  032%=      5-min Rain = 0
KBO1 202108Z 24013KT 14/M02 A3006 RMK A01 T01421023  RH  032%=      5-min Rain = 0
KBO1 202109Z 24013KT 14/M02 A3006 RMK A01 T01421023  RH  032%=      5-min Rain = 0
KBO1 202110Z 23011KT 14/M02 A3006 RMK A01 T01431022  RH  032%=      5-min Rain = 0
KBO1 202111Z 23010KT 14/M02 A3006 RMK A01 T01441021  RH  032%=      5-min Rain = 0
KBO1 202112Z 22011KT 15/M02 A3006 RMK A01 T01461018  RH  032%=      5-min Rain = 0
KBO1 202113Z 23012KT 15/M02 A3006 RMK A01 T01481018  RH  032%=      5-min Rain = 0
KBO1 202114Z 23014KT 15/M02 A3006 RMK A01 T01481021  RH  031%=      5-min Rain = 0
KBO1 202115Z 24013KT 15/M02 A3006 RMK A01 T01471024  RH  031%=      5-min Rain = 0
KBO1 202116Z 24013KT 15/M03 A3006 RMK A01 T01471027  RH  030%=      5-min Rain = 0
KBO1 202117Z 24013KT 15/M03 A3006 RMK A01 T01471029  RH  030%=      5-min Rain = 0
KBO1 202118Z 24014KT 15/M03 A3006 RMK A01 T01461028  RH  030%=      5-min Rain = 0
KBO1 202119Z 24013KT 15/M03 A3006 RMK A01 T01471028  RH  030%=      5-min Rain = 0
KBO1 202120Z 24013KT 15/M03 A3006 RMK A01 T01471030  RH  029%=      5-min Rain = 0
KBO1 202121Z 24015KT 15/M03 A3006 RMK A01 T01461030  RH  030%=      5-min Rain = 0
KBO1 202122Z 25016KT 15/M03 A3006 RMK A01 T01461030  RH  030%=      5-min Rain = 0
KBO1 202123Z 24016KT 15/M03 A3006 RMK A01 T01451029  RH  030%=      5-min Rain = 0
KBO1 202124Z 24013KT 15/M03 A3006 RMK A01 T01461029  RH  030%=      5-min Rain = 0
KBO1 202125Z 23010KT 15/M02 A3006 RMK A01 T01471024  RH  031%=      5-min Rain = 0
KBO1 202126Z 23011KT 15/M02 A3006 RMK A01 T01501021  RH  031%=      5-min Rain = 0
KBO1 202127Z 23014KT 15/M02 A3006 RMK A01 T01511020  RH  031%=      5-min Rain = 0
KBO1 202128Z 23013KT 15/M02 A3006 RMK A01 T01501021  RH  031%=      5-min Rain = 0
KBO1 202129Z 23012KT 15/M02 A3006 RMK A01 T01481020  RH  031%=      5-min Rain = 0
KBO1 202130Z 23010KT 15/M02 A3006 RMK A01 T01481021  RH  031%=      5-min Rain = 0
KBO1 202131Z 24011KT 15/M02 A3006 RMK A01 T01481021  RH  031%=      5-min Rain = 0
KBO1 202132Z 24012G17KT 15/M02 A3006 RMK A01 T01491019  RH  031%=      5-min Rain = 0
KBO1 202133Z 25013KT 15/M02 A3006 RMK A01 T01501023  RH  030%=      5-min Rain = 0
KBO1 202134Z 25012KT 15/M02 A3006 RMK A01 T01501023  RH  030%=      5-min Rain = 0
KBO1 202135Z 25012KT 15/M02 A3006 RMK A01 T01511020  RH  031%=      5-min Rain = 0
KBO1 202136Z 25012KT 15/M02 A3006 RMK A01 T01521022  RH  030%=      5-min Rain = 0
KBO1 202137Z 25012KT 15/M02 A3006 RMK A01 T01511023  RH  030%=      5-min Rain = 0
KBO1 202138Z 24010KT 15/M02 A3006 RMK A01 T01491023  RH  031%=      5-min Rain = 0
KBO1 202139Z 25012KT 15/M02 A3006 RMK A01 T01501022  RH  031%=      5-min Rain = 0
KBO1 202140Z 25012KT 15/M03 A3006 RMK A01 T01521026  RH  029%=      5-min Rain = 0
KBO1 202141Z 25013KT 15/M03 A3006 RMK A01 T01531027  RH  029%=      5-min Rain = 0
KBO1 202142Z 27013KT 15/M03 A3006 RMK A01 T01541025  RH  029%=      5-min Rain = 0
KBO1 202143Z 26014KT 16/M03 A3006 RMK A01 T01561026  RH  029%=      5-min Rain = 0
KBO1 202144Z 25014KT 16/M03 A3006 RMK A01 T01551027  RH  028%=      5-min Rain = 0
KBO1 202145Z 24013KT 16/M03 A3006 RMK A01 T01551027  RH  029%=      5-min Rain = 0
KBO1 202146Z 25012KT 15/M03 A3006 RMK A01 T01541027  RH  029%=      5-min Rain = 0
KBO1 202147Z 26011KT 15/M03 A3006 RMK A01 T01541026  RH  029%=      5-min Rain = 0
KBO1 202148Z 25011KT 16/M03 A3006 RMK A01 T01551026  RH  029%=      5-min Rain = 0
KBO1 202149Z 26013KT 16/M02 A3005 RMK A01 T01561024  RH  029%=      5-min Rain = 0
KBO1 202150Z 26013KT 16/M02 A3005 RMK A01 T01581023  RH  029%=      5-min Rain = 0
KBO1 202151Z 27011KT 16/M02 A3006 RMK A01 T01591023  RH  029%=      5-min Rain = 0
KBO1 202152Z 26012KT 16/M02 A3005 RMK A01 T01591023  RH  029%=      5-min Rain = 0
KBO1 202153Z 26013KT 16/M02 A3005 RMK A01 T01591024  RH  028%=      5-min Rain = 0
KBO1 202154Z 25011KT 16/M03 A3005 RMK A01 T01581026  RH  028%=      5-min Rain = 0
KBO1 202155Z 26011KT 16/M02 A3005 RMK A01 T01581024  RH  028%=      5-min Rain = 0
KBO1 202156Z 26010KT 16/M02 A3005 RMK A01 T01591023  RH  029%=      5-min Rain = 0
KBO1 202157Z 26011KT 16/M02 A3005 RMK A01 T01611022  RH  029%=      5-min Rain = 0
KBO1 202158Z 25011KT 16/M02 A3005 RMK A01 T01621023  RH  028%=      5-min Rain = 0
KBO1 202159Z 26013KT 16/M02 A3005 RMK A01 T01631020  RH  028%=      5-min Rain = 0
KBO1 202200Z 26013KT 16/M02 A3005 RMK A01 T01631023  RH  028%=      5-min Rain = 0
KBO1 202201Z 27013KT 16/M02 A3005 RMK A01 T01621024  RH  028%=      5-min Rain = 0
KBO1 202202Z 26013KT 16/M02 A3005 RMK A01 T01621023  RH  028%=      5-min Rain = 0
KBO1 202203Z 26013KT 16/M02 A3005 RMK A01 T01621021  RH  028%=      5-min Rain = 0
KBO1 202204Z 25010KT 16/M02 A3005 RMK A01 T01621022  RH  028%=      5-min Rain = 0
KBO1 202205Z 25010KT 16/M02 A3005 RMK A01 T01621020  RH  029%=      5-min Rain = 0
KBO1 202206Z 25009KT 16/M02 A3005 RMK A01 T01621023  RH  028%=      5-min Rain = 0
KBO1 202207Z 26011G16KT 16/M02 A3005 RMK A01 T01621022  RH  028%=      5-min Rain = 0
KBO1 202208Z 26014KT 16/M02 A3005 RMK A01 T01631023  RH  028%=      5-min Rain = 0
KBO1 202209Z 26016KT 16/M03 A3005 RMK A01 T01631026  RH  027%=      5-min Rain = 0
KBO1 202210Z 25014KT 16/M03 A3005 RMK A01 T01631026  RH  027%=      5-min Rain = 0
KBO1 202211Z 25013KT 16/M03 A3005 RMK A01 T01631026  RH  027%=      5-min Rain = 0
KBO1 202212Z 25014KT 16/M03 A3005 RMK A01 T01621027  RH  027%=      5-min Rain = 0
KBO1 202213Z 25014KT 16/M03 A3005 RMK A01 T01631027  RH  027%=      5-min Rain = 0
KBO1 202214Z 25015KT 16/M03 A3005 RMK A01 T01631026  RH  027%=      5-min Rain = 0
KBO1 202215Z 25014KT 16/M03 A3005 RMK A01 T01631026  RH  027%=      5-min Rain = 0
KBO1 202216Z 25014KT 16/M03 A3005 RMK A01 T01621025  RH  028%=      5-min Rain = 0
KBO1 202217Z 25012KT 16/M03 A3005 RMK A01 T01611026  RH  028%=      5-min Rain = 0
KBO1 202218Z 25011KT 16/M03 A3004 RMK A01 T01611026  RH  028%=      5-min Rain = 0
KBO1 202219Z 25010KT 16/M02 A3005 RMK A01 T01611024  RH  028%=      5-min Rain = 0
KBO1 202220Z 26011KT 16/M03 A3004 RMK A01 T01611025  RH  028%=      5-min Rain = 0
KBO1 202221Z 26011KT 16/M03 A3004 RMK A01 T01611025  RH  028%=      5-min Rain = 0
KBO1 202222Z 26011KT 16/M03 A3004 RMK A01 T01611025  RH  028%=      5-min Rain = 0
KBO1 202223Z 25009KT 16/M02 A3004 RMK A01 T01611024  RH  028%=      5-min Rain = 0
KBO1 202224Z 26010KT 16/M02 A3004 RMK A01 T01621023  RH  028%=      5-min Rain = 0
KBO1 202225Z 26010KT 16/M02 A3004 RMK A01 T01631023  RH  028%=      5-min Rain = 0
KBO1 202226Z 26009KT 16/M02 A3004 RMK A01 T01631022  RH  028%=      5-min Rain = 0
KBO1 202227Z 25010KT 16/M02 A3004 RMK A01 T01631023  RH  028%=      5-min Rain = 0
KBO1 202228Z 25009KT 16/M02 A3004 RMK A01 T01631023  RH  028%=      5-min Rain = 0
KBO1 202229Z 25011KT 16/M02 A3004 RMK A01 T01631023  RH  028%=      5-min Rain = 0
KBO1 202230Z 26008KT 16/M02 A3004 RMK A01 T01641021  RH  028%=      5-min Rain = 0
KBO1 202231Z 25008KT 17/M02 A3004 RMK A01 T01651021  RH  028%=      5-min Rain = 0
KBO1 202232Z 25011KT 17/M02 A3004 RMK A01 T01651021  RH  028%=      5-min Rain = 0
KBO1 202233Z 25010KT 17/M02 A3004 RMK A01 T01651023  RH  028%=      5-min Rain = 0
KBO1 202234Z 26011KT 17/M02 A3004 RMK A01 T01651022  RH  028%=      5-min Rain = 0
KBO1 202235Z 25011KT 17/M02 A3004 RMK A01 T01661024  RH  027%=      5-min Rain = 0
KBO1 202236Z 25012KT 17/M03 A3004 RMK A01 T01661026  RH  027%=      5-min Rain = 0
KBO1 202237Z 25009KT 17/M03 A3004 RMK A01 T01651026  RH  027%=      5-min Rain = 0
KBO1 202238Z 25010KT 17/M03 A3004 RMK A01 T01651025  RH  027%=      5-min Rain = 0
KBO1 202239Z 26010KT 17/M03 A3004 RMK A01 T01651026  RH  027%=      5-min Rain = 0
KBO1 202240Z 25009KT 17/M03 A3004 RMK A01 T01651025  RH  027%=      5-min Rain = 0
KBO1 202241Z 26010KT 17/M02 A3004 RMK A01 T01651024  RH  027%=      5-min Rain = 0
KBO1 202242Z 26010KT 17/M02 A3004 RMK A01 T01651024  RH  027%=      5-min Rain = 0
KBO1 202243Z 25010KT 16/M03 A3004 RMK A01 T01641025  RH  027%=      5-min Rain = 0
KBO1 202244Z 25009KT 16/M03 A3004 RMK A01 T01631025  RH  028%=      5-min Rain = 0
KBO1 202245Z 25009KT 16/M03 A3004 RMK A01 T01631025  RH  028%=      5-min Rain = 0
KBO1 202246Z 25008KT 16/M02 A3004 RMK A01 T01621022  RH  028%=      5-min Rain = 0
KBO1 202247Z 25009KT 16/M02 A3004 RMK A01 T01611022  RH  028%=      5-min Rain = 0
KBO1 202248Z 25009KT 16/M02 A3004 RMK A01 T01611022  RH  028%=      5-min Rain = 0
KBO1 202249Z 25008KT 16/M02 A3004 RMK A01 T01601022  RH  028%=      5-min Rain = 0
KBO1 202250Z 24007KT 16/M02 A3004 RMK A01 T01611020  RH  029%=      5-min Rain = 0
KBO1 202251Z 25007KT 16/M02 A3004 RMK A01 T01611019  RH  029%=      5-min Rain = 0
KBO1 202252Z 25007KT 16/M02 A3004 RMK A01 T01611018  RH  029%=      5-min Rain = 0
KBO1 202253Z 25008KT 16/M02 A3004 RMK A01 T01611017  RH  029%=      5-min Rain = 0
KBO1 202254Z 24009KT 16/M02 A3003 RMK A01 T01621017  RH  029%=      5-min Rain = 0
KBO1 202255Z 24009KT 16/M02 A3003 RMK A01 T01631018  RH  029%=      5-min Rain = 0
KBO1 202256Z 25009KT 16/M02 A3003 RMK A01 T01641017  RH  029%=      5-min Rain = 0
KBO1 202257Z 24010KT 16/M02 A3003 RMK A01 T01641019  RH  029%=      5-min Rain = 0
KBO1 202258Z 25010KT 16/M02 A3003 RMK A01 T01641020  RH  028%=      5-min Rain = 0
KBO1 202259Z 24009KT 16/M02 A3004 RMK A01 T01641020  RH  028%=      5-min Rain = 0
KBO1 202300Z 25009KT 16/M02 A3004 RMK A01 T01641019  RH  029%=      5-min Rain = 0
KBO1 202301Z 25009KT 16/M02 A3004 RMK A01 T01631020  RH  029%=      5-min Rain = 0
KBO1 202302Z 24008KT 16/M02 A3004 RMK A01 T01621021  RH  028%=      5-min Rain = 0
KBO1 202303Z 25007KT 16/M02 A3004 RMK A01 T01631018  RH  029%=      5-min Rain = 0
KBO1 202304Z 25007KT 16/M02 A3004 RMK A01 T01621018  RH  029%=      5-min Rain = 0
KBO1 202305Z 24006KT 16/M02 A3004 RMK A01 T01621020  RH  029%=      5-min Rain = 0
KBO1 202306Z 24005KT 16/M02 A3004 RMK A01 T01621019  RH  029%=      5-min Rain = 0
KBO1 202307Z 23005KT 16/M02 A3004 RMK A01 T01611018  RH  029%=      5-min Rain = 0
KBO1 202308Z 25004KT 16/M02 A3004 RMK A01 T01611017  RH  030%=      5-min Rain = 0
KBO1 202309Z 25003KT 16/M02 A3004 RMK A01 T01601018  RH  029%=      5-min Rain = 0
KBO1 202310Z 24002KT 16/M02 A3003 RMK A01 T01601019  RH  029%=      5-min Rain = 0
KBO1 202311Z 24002KT 16/M02 A3003 RMK A01 T01601019  RH  029%=      5-min Rain = 0
KBO1 202312Z 23002KT 16/M02 A3003 RMK A01 T01601018  RH  030%=      5-min Rain = 0
KBO1 202313Z 24003KT 16/M02 A3003 RMK A01 T01591018  RH  030%=      5-min Rain = 0
KBO1 202314Z 26002KT 16/M02 A3003 RMK A01 T01591016  RH  030%=      5-min Rain = 0
KBO1 202315Z 24003KT 16/M02 A3003 RMK A01 T01571017  RH  030%=      5-min Rain = 0
KBO1 202316Z 25005KT 16/M02 A3003 RMK A01 T01571017  RH  030%=      5-min Rain = 0
KBO1 202317Z 24006KT 16/M02 A3003 RMK A01 T01561019  RH  030%=      5-min Rain = 0
KBO1 202318Z 24005KT 16/M02 A3003 RMK A01 T01551019  RH  030%=      5-min Rain = 0
KBO1 202319Z 23005KT 15/M02 A3003 RMK A01 T01541018  RH  031%=      5-min Rain = 0
KBO1 202320Z 24006KT 15/M02 A3003 RMK A01 T01531018  RH  031%=      5-min Rain = 0
KBO1 202321Z 23006KT 15/M02 A3003 RMK A01 T01521017  RH  031%=      5-min Rain = 0
KBO1 202322Z 23006KT 15/M02 A3003 RMK A01 T01511018  RH  031%=      5-min Rain = 0
KBO1 202323Z 23006KT 15/M02 A3003 RMK A01 T01511017  RH  031%=      5-min Rain = 0
KBO1 202324Z 23006KT 15/M02 A3003 RMK A01 T01501017  RH  032%=      5-min Rain = 0
KBO1 202325Z 23006KT 15/M02 A3003 RMK A01 T01491016  RH  032%=      5-min Rain = 0
KBO1 202326Z 23006KT 15/M02 A3003 RMK A01 T01481015  RH  033%=      5-min Rain = 0
KBO1 202327Z 23007KT 15/M01 A3003 RMK A01 T01471013  RH  033%=      5-min Rain = 0
KBO1 202328Z 23007KT 15/M01 A3003 RMK A01 T01461013  RH  033%=      5-min Rain = 0
KBO1 202329Z 23007KT 15/M01 A3003 RMK A01 T01461014  RH  033%=      5-min Rain = 0
KBO1 202330Z 23008KT 15/M01 A3003 RMK A01 T01461013  RH  034%=      5-min Rain = 0
KBO1 202331Z 23008KT 15/M01 A3003 RMK A01 T01451012  RH  034%=      5-min Rain = 0
KBO1 202332Z 23008KT 14/M01 A3003 RMK A01 T01441013  RH  034%=      5-min Rain = 0
KBO1 202333Z 23007KT 14/M01 A3003 RMK A01 T01441012  RH  034%=      5-min Rain = 0
KBO1 202334Z 23008KT 14/M01 A3003 RMK A01 T01431012  RH  034%=      5-min Rain = 0
KBO1 202335Z 23007KT 14/M01 A3003 RMK A01 T01411013  RH  035%=      5-min Rain = 0
KBO1 202336Z 22006KT 14/M01 A3003 RMK A01 T01401012  RH  035%=      5-min Rain = 0
KBO1 202337Z 22006KT 14/M01 A3003 RMK A01 T01391011  RH  035%=      5-min Rain = 0
KBO1 202338Z 22006KT 14/M01 A3003 RMK A01 T01381012  RH  036%=      5-min Rain = 0
KBO1 202339Z 22006KT 14/M01 A3003 RMK A01 T01371013  RH  036%=      5-min Rain = 0
KBO1 202340Z 22006KT 14/M01 A3003 RMK A01 T01361013  RH  036%=      5-min Rain = 0
KBO1 202341Z 21007KT 14/M01 A3003 RMK A01 T01351013  RH  036%=      5-min Rain = 0
KBO1 202342Z 21006KT 13/M01 A3003 RMK A01 T01341013  RH  036%=      5-min Rain = 0
KBO1 202343Z 21006KT 13/M01 A3003 RMK A01 T01321013  RH  037%=      5-min Rain = 0
KBO1 202344Z 21006KT 13/M02 A3003 RMK A01 T01311015  RH  036%=      5-min Rain = 0
KBO1 202345Z 21006KT 13/M02 A3003 RMK A01 T01311017  RH  036%=      5-min Rain = 0
KBO1 202346Z 21006KT 13/M02 A3003 RMK A01 T01311018  RH  035%=      5-min Rain = 0
KBO1 202347Z 20006KT 13/M02 A3003 RMK A01 T01321018  RH  035%=      5-min Rain = 0
KBO1 202348Z 19006KT 13/M02 A3003 RMK A01 T01311018  RH  036%=      5-min Rain = 0
KBO1 202349Z 19007KT 13/M02 A3003 RMK A01 T01291019  RH  036%=      5-min Rain = 0
KBO1 202350Z 19008KT 13/M02 A3003 RMK A01 T01271019  RH  036%=      5-min Rain = 0
KBO1 202351Z 19009KT 13/M02 A3003 RMK A01 T01261019  RH  037%=      5-min Rain = 0
KBO1 202352Z 19009KT 13/M02 A3003 RMK A01 T01261018  RH  037%=      5-min Rain = 0
KBO1 202353Z 19009KT 12/M02 A3003 RMK A01 T01241017  RH  037%=      5-min Rain = 0
KBO1 202354Z 19008KT 12/M02 A3003 RMK A01 T01231017  RH  038%=      5-min Rain = 0
KBO1 202355Z 19008KT 12/M02 A3002 RMK A01 T01211017  RH  038%=      5-min Rain = 0
KBO1 202356Z 19007KT 12/M02 A3002 RMK A01 T01191017  RH  039%=      5-min Rain = 0
KBO1 202357Z 19008KT 12/M02 A3002 RMK A01 T01161018  RH  039%=      5-min Rain = 0
KBO1 202358Z 19007KT 11/M02 A3002 RMK A01 T01141018  RH  040%=      5-min Rain = 0
KBO1 202359Z 19007KT 11/M02 A3002 RMK A01 T01131017  RH  040%=      5-min Rain = 0
KBO1 210000Z 19008KT 11/M02 A3002 RMK A01 T01111017  RH  041%=      5-min Rain = 0
KBO1 210001Z 19008KT 11/M02 A3002 RMK A01 T01091017  RH  041%=      5-min Rain = 0
KBO1 210002Z 19007KT 11/M02 A3002 RMK A01 T01081017  RH  042%=      5-min Rain = 0
KBO1 210003Z 19007KT 11/M02 A3002 RMK A01 T01071017  RH  042%=      5-min Rain = 0
KBO1 210004Z 19007KT 11/M02 A3002 RMK A01 T01061016  RH  043%=      5-min Rain = 0
KBO1 210005Z 18007KT 11/M02 A3002 RMK A01 T01051016  RH  043%=      5-min Rain = 0
KBO1 210006Z 18007KT 10/M02 A3002 RMK A01 T01041016  RH  043%=      5-min Rain = 0
KBO1 210007Z 18007KT 10/M02 A3002 RMK A01 T01031016  RH  044%=      5-min Rain = 0
KBO1 210008Z 18007KT 10/M02 A3002 RMK A01 T01011016  RH  044%=      5-min Rain = 0
KBO1 210009Z 18007KT 10/M02 A3002 RMK A01 T01001015  RH  045%=      5-min Rain = 0
KBO1 210010Z 18008KT 10/M02 A3002 RMK A01 T00981015  RH  045%=      5-min Rain = 0
KBO1 210011Z 18008KT 10/M02 A3002 RMK A01 T00961015  RH  046%=      5-min Rain = 0
KBO1 210012Z 18008KT 09/M02 A3002 RMK A01 T00941015  RH  046%=      5-min Rain = 0
KBO1 210013Z 18008KT 09/M01 A3002 RMK A01 T00931014  RH  047%=      5-min Rain = 0
KBO1 210014Z 18008KT 09/M01 A3002 RMK A01 T00911014  RH  048%=      5-min Rain = 0
KBO1 210015Z 18009KT 09/M01 A3002 RMK A01 T00901013  RH  048%=      5-min Rain = 0
KBO1 210016Z 18009KT 09/M01 A3002 RMK A01 T00891013  RH  049%=      5-min Rain = 0
KBO1 210017Z 18009KT 09/M01 A3002 RMK A01 T00881012  RH  049%=      5-min Rain = 0
KBO1 210018Z 18008KT 09/M01 A3002 RMK A01 T00881011  RH  050%=      5-min Rain = 0
KBO1 210019Z 18008KT 09/M01 A3002 RMK A01 T00881011  RH  050%=      5-min Rain = 0
KBO1 210020Z 18008KT 09/M01 A3002 RMK A01 T00881010  RH  050%=      5-min Rain = 0
KBO1 210021Z 18008KT 09/M01 A3002 RMK A01 T00881010  RH  050%=      5-min Rain = 0
KBO1 210022Z 17007KT 09/M01 A3002 RMK A01 T00891010  RH  050%=      5-min Rain = 0
KBO1 210023Z 17007KT 09/M01 A3002 RMK A01 T00891010  RH  050%=      5-min Rain = 0
KBO1 210024Z 17006KT 09/M01 A3002 RMK A01 T00891010  RH  050%=      5-min Rain = 0
KBO1 210025Z 18006KT 09/M01 A3002 RMK A01 T00881010  RH  050%=      5-min Rain = 0
KBO1 210026Z 18006KT 09/M01 A3002 RMK A01 T00871011  RH  050%=      5-min Rain = 0
KBO1 210027Z 18006KT 09/M01 A3002 RMK A01 T00861010  RH  051%=      5-min Rain = 0
KBO1 210028Z 19005KT 08/M01 A3002 RMK A01 T00841011  RH  051%=      5-min Rain = 0
KBO1 210029Z 19005KT 08/M01 A3002 RMK A01 T00831010  RH  052%=      5-min Rain = 0
KBO1 210030Z 19007KT 08/M01 A3002 RMK A01 T00821010  RH  052%=      5-min Rain = 0
KBO1 210031Z 19007KT 08/M01 A3002 RMK A01 T00801011  RH  053%=      5-min Rain = 0
KBO1 210032Z 19009KT 08/M01 A3002 RMK A01 T00811010  RH  053%=      5-min Rain = 0
KBO1 210033Z 19009KT 08/M01 A3002 RMK A01 T00831009  RH  053%=      5-min Rain = 0
KBO1 210034Z 19010KT 09/M01 A3002 RMK A01 T00861008  RH  052%=      5-min Rain = 0
KBO1 210035Z 19010KT 09/M01 A3002 RMK A01 T00881009  RH  051%=      5-min Rain = 0
KBO1 210036Z 19011KT 09/M01 A3002 RMK A01 T00901009  RH  050%=      5-min Rain = 0
KBO1 210037Z 19011KT 09/M01 A3001 RMK A01 T00911010  RH  049%=      5-min Rain = 0
KBO1 210038Z 19011KT 09/M01 A3001 RMK A01 T00921010  RH  049%=      5-min Rain = 0
KBO1 210039Z 20010KT 09/M01 A3001 RMK A01 T00921011  RH  049%=      5-min Rain = 0
KBO1 210040Z 19009KT 09/M01 A3001 RMK A01 T00921010  RH  049%=      5-min Rain = 0
KBO1 210041Z 19009KT 09/M01 A3001 RMK A01 T00901011  RH  049%=      5-min Rain = 0
KBO1 210042Z 19010KT 09/M01 A3001 RMK A01 T00881011  RH  050%=      5-min Rain = 0
KBO1 210043Z 19010KT 09/M01 A3001 RMK A01 T00851011  RH  051%=      5-min Rain = 0
KBO1 210044Z 19009KT 08/M01 A3001 RMK A01 T00831011  RH  051%=      5-min Rain = 0
KBO1 210045Z 19010KT 08/M01 A3001 RMK A01 T00821011  RH  052%=      5-min Rain = 0
KBO1 210046Z 19010KT 08/M01 A3001 RMK A01 T00811012  RH  052%=      5-min Rain = 0
KBO1 210047Z 19010KT 08/M01 A3001 RMK A01 T00791012  RH  052%=      5-min Rain = 0
KBO1 210048Z 19010KT 08/M01 A3001 RMK A01 T00781012  RH  053%=      5-min Rain = 0
KBO1 210049Z 19011KT 08/M01 A3001 RMK A01 T00771012  RH  053%=      5-min Rain = 0
KBO1 210050Z 19011KT 08/M01 A3001 RMK A01 T00771012  RH  054%=      5-min Rain = 0
KBO1 210051Z 19010KT 08/M01 A3001 RMK A01 T00771011  RH  054%=      5-min Rain = 0
KBO1 210052Z 19010KT 08/M01 A3001 RMK A01 T00771011  RH  054%=      5-min Rain = 0
KBO1 210053Z 19011KT 08/M01 A3001 RMK A01 T00771011  RH  053%=      5-min Rain = 0
KBO1 210054Z 19010KT 08/M01 A3001 RMK A01 T00771011  RH  054%=      5-min Rain = 0
KBO1 210055Z 19009KT 08/M01 A3001 RMK A01 T00771012  RH  053%=      5-min Rain = 0
KBO1 210056Z 19008KT 08/M01 A3001 RMK A01 T00771012  RH  053%=      5-min Rain = 0
KBO1 210057Z 19007KT 08/M01 A3001 RMK A01 T00771012  RH  053%=      5-min Rain = 0
KBO1 210058Z 19007KT 08/M01 A3001 RMK A01 T00751012  RH  054%=      5-min Rain = 0
KBO1 210059Z 19006KT 07/M01 A3001 RMK A01 T00741013  RH  054%=      5-min Rain = 0
KBO1 210100Z 19006KT 07/M01 A3001 RMK A01 T00731013  RH  054%=      5-min Rain = 0
KBO1 210101Z 19006KT 07/M01 A3001 RMK A01 T00711014  RH  055%=      5-min Rain = 0
KBO1 210102Z 19006KT 07/M01 A3001 RMK A01 T00701014  RH  055%=      5-min Rain = 0
KBO1 210103Z 19006KT 07/M01 A3001 RMK A01 T00691014  RH  055%=      5-min Rain = 0
KBO1 210104Z 20006KT 07/M01 A3001 RMK A01 T00681014  RH  056%=      5-min Rain = 0
KBO1 210105Z 20006KT 07/M01 A3001 RMK A01 T00671014  RH  056%=      5-min Rain = 0
KBO1 210106Z 20007KT 07/M01 A3001 RMK A01 T00661013  RH  057%=      5-min Rain = 0
KBO1 210107Z 20008KT 07/M01 A3001 RMK A01 T00661012  RH  058%=      5-min Rain = 0
KBO1 210108Z 20008KT 07/M01 A3001 RMK A01 T00661011  RH  058%=      5-min Rain = 0
KBO1 210109Z 20009KT 07/M01 A3001 RMK A01 T00681009  RH  058%=      5-min Rain = 0
KBO1 210110Z 20009KT 07/M01 A3001 RMK A01 T00691009  RH  058%=      5-min Rain = 0
KBO1 210111Z 20009KT 07/M01 A3001 RMK A01 T00701009  RH  057%=      5-min Rain = 0
KBO1 210112Z 20009KT 07/M01 A3001 RMK A01 T00701009  RH  057%=      5-min Rain = 0
KBO1 210113Z 20010KT 07/M01 A3001 RMK A01 T00681009  RH  058%=      5-min Rain = 0
KBO1 210114Z 20009KT 07/M01 A3001 RMK A01 T00671009  RH  058%=      5-min Rain = 0
KBO1 210115Z 20009KT 07/M01 A3001 RMK A01 T00651010  RH  059%=      5-min Rain = 0
KBO1 210116Z 20009KT 06/M01 A3001 RMK A01 T00641010  RH  059%=      5-min Rain = 0
KBO1 210117Z 20009KT 06/M01 A3001 RMK A01 T00631010  RH  060%=      5-min Rain = 0
KBO1 210118Z 20008KT 06/M01 A3001 RMK A01 T00611010  RH  060%=      5-min Rain = 0
KBO1 210119Z 20008KT 06/M01 A3001 RMK A01 T00601011  RH  061%=      5-min Rain = 0
KBO1 210120Z 20008KT 06/M01 A3001 RMK A01 T00591011  RH  061%=      5-min Rain = 0
KBO1 210121Z 20008KT 06/M01 A3001 RMK A01 T00571011  RH  061%=      5-min Rain = 0
KBO1 210122Z 20008KT 06/M01 A3001 RMK A01 T00561012  RH  062%=      5-min Rain = 0
KBO1 210123Z 21008KT 06/M01 A3001 RMK A01 T00551012  RH  062%=      5-min Rain = 0
KBO1 210124Z 21008KT 06/M01 A3001 RMK A01 T00551012  RH  062%=      5-min Rain = 0
KBO1 210125Z 21007KT 06/M01 A3001 RMK A01 T00561012  RH  061%=      5-min Rain = 0
KBO1 210126Z 21008KT 06/M01 A3001 RMK A01 T00591012  RH  060%=      5-min Rain = 0
KBO1 210127Z 21010KT 06/M01 A3001 RMK A01 T00611013  RH  059%=      5-min Rain = 0
KBO1 210128Z 21010KT 06/M01 A3001 RMK A01 T00631013  RH  058%=      5-min Rain = 0
KBO1 210129Z 21010KT 06/M01 A3001 RMK A01 T00641013  RH  058%=      5-min Rain = 0
KBO1 210130Z 22010KT 07/M01 A3001 RMK A01 T00651013  RH  057%=      5-min Rain = 0
KBO1 210131Z 22011KT 07/M01 A3001 RMK A01 T00671014  RH  056%=      5-min Rain = 0
KBO1 210132Z 22010KT 07/M02 A3001 RMK A01 T00691015  RH  055%=      5-min Rain = 0
KBO1 210133Z 22010KT 07/M02 A3001 RMK A01 T00711016  RH  054%=      5-min Rain = 0
KBO1 210134Z 21009KT 07/M02 A3001 RMK A01 T00721017  RH  053%=      5-min Rain = 0
KBO1 210135Z 22010KT 07/M02 A3001 RMK A01 T00731018  RH  053%=      5-min Rain = 0
KBO1 210136Z 22009KT 08/M02 A3001 RMK A01 T00751019  RH  051%=      5-min Rain = 0
KBO1 210137Z 22010KT 08/M02 A3001 RMK A01 T00771020  RH  050%=      5-min Rain = 0
KBO1 210138Z 23010KT 08/M02 A3001 RMK A01 T00801020  RH  049%=      5-min Rain = 0
KBO1 210139Z 23011KT 08/M02 A30 RMK A01 T00831020  RH  048%=      5-min Rain = 0
KBO1 210140Z 23011KT 09/M02 A30 RMK A01 T00871020  RH  047%=      5-min Rain = 0
KBO1 210141Z 23011KT 09/M02 A30 RMK A01 T00901020  RH  046%=      5-min Rain = 0
KBO1 210142Z 23011KT 09/M02 A30 RMK A01 T00921021  RH  045%=      5-min Rain = 0
KBO1 210143Z 23011KT 09/M02 A30 RMK A01 T00941022  RH  044%=      5-min Rain = 0
KBO1 210144Z 23011KT 10/M02 A30 RMK A01 T00951023  RH  044%=      5-min Rain = 0
KBO1 210145Z 23011KT 10/M02 A30 RMK A01 T00961023  RH  043%=      5-min Rain = 0
KBO1 210146Z 23012KT 10/M02 A30 RMK A01 T00961023  RH  043%=      5-min Rain = 0
KBO1 210147Z 23012KT 10/M02 A30 RMK A01 T00961024  RH  043%=      5-min Rain = 0
KBO1 210148Z 23011KT 10/M02 A30 RMK A01 T00961024  RH  043%=      5-min Rain = 0
KBO1 210149Z 23011KT 10/M02 A30 RMK A01 T00961024  RH  043%=      5-min Rain = 0
KBO1 210150Z 23010KT 09/M02 A30 RMK A01 T00941024  RH  043%=      5-min Rain = 0
KBO1 210151Z 22010KT 09/M02 A30 RMK A01 T00931024  RH  044%=      5-min Rain = 0
KBO1 210152Z 22009KT 09/M02 A30 RMK A01 T00921024  RH  044%=      5-min Rain = 0
KBO1 210153Z 22009KT 09/M03 A30 RMK A01 T00901025  RH  044%=      5-min Rain = 0
KBO1 210154Z 21008KT 09/M02 A30 RMK A01 T00891024  RH  045%=      5-min Rain = 0
KBO1 210155Z 21009KT 09/M02 A30 RMK A01 T00861024  RH  046%=      5-min Rain = 0
KBO1 210156Z 20009KT 08/M02 A30 RMK A01 T00841024  RH  047%=      5-min Rain = 0
KBO1 210157Z 19008KT 08/M02 A30 RMK A01 T00811024  RH  047%=      5-min Rain = 0
KBO1 210158Z 18008KT 08/M02 A3001 RMK A01 T00801024  RH  048%=      5-min Rain = 0
KBO1 210159Z 19008KT 08/M02 A3001 RMK A01 T00781023  RH  049%=      5-min Rain = 0
KBO1 210200Z 19008KT 07/M02 A3001 RMK A01 T00731023  RH  050%=      5-min Rain = 0
KBO1 210201Z 19009KT 07/M02 A3001 RMK A01 T00701023  RH  052%=      5-min Rain = 0
KBO1 210202Z 20010KT 07/M02 A3001 RMK A01 T00661023  RH  053%=      5-min Rain = 0
KBO1 210203Z 20010KT 07/M02 A3001 RMK A01 T00661023  RH  053%=      5-min Rain = 0
KBO1 210204Z 20010KT 07/M02 A3001 RMK A01 T00661023  RH  053%=      5-min Rain = 0
KBO1 210205Z 20010KT 07/M02 A3001 RMK A01 T00681023  RH  052%=      5-min Rain = 0
KBO1 210206Z 20010KT 07/M02 A3001 RMK A01 T00701023  RH  052%=      5-min Rain = 0
KBO1 210207Z 20009KT 07/M02 A3001 RMK A01 T00711022  RH  051%=      5-min Rain = 0
KBO1 210208Z 19008KT 07/M02 A30 RMK A01 T00721022  RH  051%=      5-min Rain = 0
KBO1 210209Z 19009KT 07/M02 A30 RMK A01 T00721022  RH  051%=      5-min Rain = 0
KBO1 210210Z 20009KT 07/M02 A30 RMK A01 T00721022  RH  051%=      5-min Rain = 0
KBO1 210211Z 20009KT 07/M02 A30 RMK A01 T00711022  RH  052%=      5-min Rain = 0
KBO1 210212Z 19009KT 07/M02 A30 RMK A01 T00701023  RH  052%=      5-min Rain = 0
KBO1 210213Z 19009KT 07/M02 A30 RMK A01 T00691023  RH  052%=      5-min Rain = 0
KBO1 210214Z 20009KT 07/M02 A30 RMK A01 T00681023  RH  052%=      5-min Rain = 0
KBO1 210215Z 20009KT 07/M02 A30 RMK A01 T00671024  RH  052%=      5-min Rain = 0
KBO1 210216Z 20009KT 07/M02 A30 RMK A01 T00671024  RH  052%=      5-min Rain = 0
KBO1 210217Z 21009KT 07/M02 A30 RMK A01 T00671024  RH  052%=      5-min Rain = 0
KBO1 210218Z 21009KT 07/M02 A30 RMK A01 T00681024  RH  052%=      5-min Rain = 0
KBO1 210219Z 21009KT 07/M02 A30 RMK A01 T00701023  RH  052%=      5-min Rain = 0
KBO1 210220Z 21009KT 07/M02 A30 RMK A01 T00711024  RH  051%=      5-min Rain = 0
KBO1 210221Z 21009KT 07/M02 A30 RMK A01 T00721023  RH  051%=      5-min Rain = 0
KBO1 210222Z 21009KT 07/M02 A30 RMK A01 T00731023  RH  050%=      5-min Rain = 0
KBO1 210223Z 21009KT 08/M02 A30 RMK A01 T00751023  RH  050%=      5-min Rain = 0
KBO1 210224Z 22009KT 08/M02 A30 RMK A01 T00761023  RH  049%=      5-min Rain = 0
KBO1 210225Z 22009KT 08/M02 A30 RMK A01 T00771023  RH  049%=      5-min Rain = 0
KBO1 210226Z 22008KT 08/M02 A30 RMK A01 T00781023  RH  049%=      5-min Rain = 0
KBO1 210227Z 22008KT 08/M02 A30 RMK A01 T00781024  RH  048%=      5-min Rain = 0
KBO1 210228Z 22008KT 08/M02 A30 RMK A01 T00791024  RH  048%=      5-min Rain = 0
KBO1 210229Z 23007KT 08/M02 A30 RMK A01 T00781023  RH  049%=      5-min Rain = 0
KBO1 210230Z 23008KT 08/M02 A30 RMK A01 T00771024  RH  049%=      5-min Rain = 0
KBO1 210231Z 23007KT 08/M02 A30 RMK A01 T00761024  RH  049%=      5-min Rain = 0
KBO1 210232Z 23008KT 08/M02 A30 RMK A01 T00751024  RH  049%=      5-min Rain = 0
KBO1 210233Z 23008KT 07/M02 A30 RMK A01 T00741024  RH  050%=      5-min Rain = 0
KBO1 210234Z 23007KT 07/M02 A30 RMK A01 T00731024  RH  050%=      5-min Rain = 0
KBO1 210235Z 23007KT 07/M02 A30 RMK A01 T00721024  RH  050%=      5-min Rain = 0
KBO1 210236Z 23007KT 07/M03 A30 RMK A01 T00701025  RH  051%=      5-min Rain = 0
KBO1 210237Z 23007KT 07/M03 A30 RMK A01 T00691025  RH  051%=      5-min Rain = 0
KBO1 210238Z 22007KT 07/M03 A30 RMK A01 T00681025  RH  052%=      5-min Rain = 0
KBO1 210239Z 21007KT 07/M02 A30 RMK A01 T00671024  RH  052%=      5-min Rain = 0
KBO1 210240Z 22008KT 07/M02 A30 RMK A01 T00651023  RH  053%=      5-min Rain = 0
KBO1 210241Z 22008KT 07/M02 A30 RMK A01 T00651022  RH  054%=      5-min Rain = 0
KBO1 210242Z 21008KT 07/M02 A30 RMK A01 T00651020  RH  054%=      5-min Rain = 0
KBO1 210243Z 20007KT 07/M02 A30 RMK A01 T00661020  RH  054%=      5-min Rain = 0
KBO1 210244Z 20007KT 07/M02 A30 RMK A01 T00661020  RH  054%=      5-min Rain = 0
KBO1 210245Z 19007KT 07/M02 A30 RMK A01 T00661020  RH  054%=      5-min Rain = 0
KBO1 210246Z 18008KT 07/M02 A30 RMK A01 T00661020  RH  054%=      5-min Rain = 0
KBO1 210247Z 18006KT 07/M02 A30 RMK A01 T00661020  RH  054%=      5-min Rain = 0
KBO1 210248Z 19007KT 07/M02 A30 RMK A01 T00651020  RH  054%=      5-min Rain = 0
KBO1 210249Z 20008KT 07/M02 A30 RMK A01 T00651021  RH  054%=      5-min Rain = 0
KBO1 210250Z 21009KT 07/M02 A30 RMK A01 T00661020  RH  054%=      5-min Rain = 0
KBO1 210251Z 21009KT 07/M02 A30 RMK A01 T00691020  RH  053%=      5-min Rain = 0
KBO1 210252Z 21009KT 07/M02 A30 RMK A01 T00711020  RH  052%=      5-min Rain = 0
KBO1 210253Z 21010KT 07/M02 A30 RMK A01 T00721020  RH  052%=      5-min Rain = 0
KBO1 210254Z 20009KT 07/M02 A30 RMK A01 T00721020  RH  052%=      5-min Rain = 0
KBO1 210255Z 20009KT 07/M02 A30 RMK A01 T00711020  RH  052%=      5-min Rain = 0
KBO1 210256Z 20008KT 07/M02 A30 RMK A01 T00701021  RH  052%=      5-min Rain = 0
KBO1 210257Z 21008KT 07/M02 A30 RMK A01 T00681022  RH  053%=      5-min Rain = 0
KBO1 210258Z 21008KT 07/M02 A30 RMK A01 T00671022  RH  053%=      5-min Rain = 0
KBO1 210259Z 21007KT 07/M02 A30 RMK A01 T00661023  RH  053%=      5-min Rain = 0
KBO1 210300Z 21006KT 06/M02 A30 RMK A01 T00641023  RH  054%=      5-min Rain = 0
KBO1 210301Z 20006KT 06/M02 A30 RMK A01 T00631023  RH  054%=      5-min Rain = 0
KBO1 210302Z 20006KT 06/M02 A30 RMK A01 T00611024  RH  054%=      5-min Rain = 0
KBO1 210303Z 20006KT 06/M03 A30 RMK A01 T00591025  RH  055%=      5-min Rain = 0
KBO1 210304Z 20005KT 06/M03 A30 RMK A01 T00571025  RH  056%=      5-min Rain = 0
KBO1 210305Z 19005KT 05/M03 A30 RMK A01 T00541026  RH  056%=      5-min Rain = 0
KBO1 210306Z 18004KT 05/M03 A30 RMK A01 T00521027  RH  057%=      5-min Rain = 0
KBO1 210307Z 17004KT 05/M03 A30 RMK A01 T00491027  RH  058%=      5-min Rain = 0
KBO1 210308Z 19004KT 05/M03 A30 RMK A01 T00451028  RH  059%=      5-min Rain = 0
KBO1 210309Z 19006KT 04/M03 A30 RMK A01 T00431027  RH  060%=      5-min Rain = 0
KBO1 210310Z 20007KT 04/M03 A30 RMK A01 T00421027  RH  061%=      5-min Rain = 0
KBO1 210311Z 20009KT 04/M03 A30 RMK A01 T00421026  RH  061%=      5-min Rain = 0
KBO1 210312Z 20008KT 04/M03 A30 RMK A01 T00441025  RH  061%=      5-min Rain = 0
KBO1 210313Z 20009KT 05/M02 A2999 RMK A01 T00451024  RH  061%=      5-min Rain = 0
KBO1 210314Z 20010KT 05/M02 A2999 RMK A01 T00471023  RH  060%=      5-min Rain = 0
KBO1 210315Z 21010KT 05/M02 A2999 RMK A01 T00481023  RH  060%=      5-min Rain = 0
KBO1 210316Z 21011KT 05/M02 A2999 RMK A01 T00481023  RH  060%=      5-min Rain = 0
KBO1 210317Z 21011KT 05/M02 A2999 RMK A01 T00491023  RH  059%=      5-min Rain = 0
KBO1 210318Z 21012KT 05/M02 A2999 RMK A01 T00511023  RH  059%=      5-min Rain = 0
KBO1 210319Z 21013KT 05/M02 A2999 RMK A01 T00511023  RH  059%=      5-min Rain = 0
KBO1 210320Z 21013KT 05/M02 A2999 RMK A01 T00521023  RH  058%=      5-min Rain = 0
KBO1 210321Z 21013KT 05/M02 A2999 RMK A01 T00531023  RH  058%=      5-min Rain = 0
KBO1 210322Z 21013KT 05/M02 A2999 RMK A01 T00541023  RH  057%=      5-min Rain = 0
KBO1 210323Z 21013KT 06/M02 A2999 RMK A01 T00561023  RH  057%=      5-min Rain = 0
KBO1 210324Z 21015KT 06/M02 A2999 RMK A01 T00581023  RH  056%=      5-min Rain = 0
KBO1 210325Z 21013KT 06/M02 A2999 RMK A01 T00601023  RH  055%=      5-min Rain = 0
KBO1 210326Z 22014KT 06/M02 A2999 RMK A01 T00611023  RH  055%=      5-min Rain = 0
KBO1 210327Z 22014KT 06/M02 A2999 RMK A01 T00611023  RH  055%=      5-min Rain = 0
KBO1 210328Z 22014KT 06/M02 A2999 RMK A01 T00601023  RH  055%=      5-min Rain = 0
KBO1 210329Z 21014KT 06/M02 A2999 RMK A01 T00581024  RH  056%=      5-min Rain = 0
KBO1 210330Z 22014KT 06/M02 A2999 RMK A01 T00561024  RH  056%=      5-min Rain = 0
KBO1 210331Z 22014KT 05/M03 A2999 RMK A01 T00541025  RH  057%=      5-min Rain = 0
KBO1 210332Z 22015KT 05/M03 A2999 RMK A01 T00521025  RH  057%=      5-min Rain = 0
KBO1 210333Z 22015KT 05/M03 A2999 RMK A01 T00521026  RH  057%=      5-min Rain = 0
KBO1 210334Z 22015KT 05/M03 A2999 RMK A01 T00511026  RH  057%=      5-min Rain = 0
KBO1 210335Z 22014KT 05/M03 A2999 RMK A01 T00511026  RH  057%=      5-min Rain = 0
KBO1 210336Z 22014KT 05/M03 A2999 RMK A01 T00501027  RH  058%=      5-min Rain = 0
KBO1 210337Z 21014KT 05/M03 A2999 RMK A01 T00491027  RH  058%=      5-min Rain = 0
KBO1 210338Z 22014KT 05/M03 A2998 RMK A01 T00481027  RH  058%=      5-min Rain = 0
KBO1 210339Z 21014KT 05/M03 A2998 RMK A01 T00481028  RH  058%=      5-min Rain = 0
KBO1 210340Z 21014KT 05/M03 A2998 RMK A01 T00471028  RH  058%=      5-min Rain = 0
KBO1 210341Z 21014KT 05/M03 A2998 RMK A01 T00461028  RH  058%=      5-min Rain = 0
KBO1 210342Z 21014KT 05/M03 A2998 RMK A01 T00461028  RH  059%=      5-min Rain = 0
KBO1 210343Z 21013KT 04/M03 A2999 RMK A01 T00441029  RH  059%=      5-min Rain = 0
KBO1 210344Z 21013KT 04/M03 A2998 RMK A01 T00421029  RH  060%=      5-min Rain = 0
KBO1 210345Z 21013KT 04/M03 A2998 RMK A01 T00411030  RH  060%=      5-min Rain = 0
KBO1 210346Z 21014KT 04/M03 A2998 RMK A01 T00391030  RH  060%=      5-min Rain = 0
KBO1 210347Z 21013KT 04/M03 A2998 RMK A01 T00381031  RH  061%=      5-min Rain = 0
KBO1 210348Z 21013KT 04/M03 A2998 RMK A01 T00361031  RH  061%=      5-min Rain = 0
KBO1 210349Z 22013KT 04/M03 A2998 RMK A01 T00351032  RH  062%=      5-min Rain = 0
KBO1 210350Z 22013KT 03/M03 A2998 RMK A01 T00341032  RH  062%=      5-min Rain = 0
KBO1 210351Z 22014KT 03/M03 A2998 RMK A01 T00331032  RH  062%=      5-min Rain = 0
KBO1 210352Z 22014KT 03/M03 A2998 RMK A01 T00321032  RH  063%=      5-min Rain = 0
KBO1 210353Z 22014KT 03/M03 A2998 RMK A01 T00311032  RH  063%=      5-min Rain = 0
KBO1 210354Z 22014KT 03/M03 A2998 RMK A01 T00311032  RH  064%=      5-min Rain = 0
KBO1 210355Z 22014KT 03/M03 A2998 RMK A01 T00311031  RH  064%=      5-min Rain = 0
KBO1 210356Z 22014KT 03/M03 A2998 RMK A01 T00301031  RH  064%=      5-min Rain = 0
KBO1 210357Z 22015KT 03/M03 A2998 RMK A01 T00301031  RH  064%=      5-min Rain = 0
KBO1 210358Z 22015KT 03/M03 A2998 RMK A01 T00311030  RH  064%=      5-min Rain = 0
KBO1 210359Z 22015KT 03/M03 A2998 RMK A01 T00331030  RH  063%=      5-min Rain = 0
KBO1 210400Z 22014KT 04/M03 A2998 RMK A01 T00361029  RH  062%=      5-min Rain = 0
KBO1 210401Z 22014KT 04/M03 A2998 RMK A01 T00371029  RH  062%=      5-min Rain = 0
KBO1 210402Z 22014KT 04/M03 A2998 RMK A01 T00371029  RH  062%=      5-min Rain = 0
KBO1 210403Z 22014KT 04/M03 A2998 RMK A01 T00371029  RH  062%=      5-min Rain = 0
KBO1 210404Z 22014KT 04/M03 A2998 RMK A01 T00381029  RH  062%=      5-min Rain = 0
KBO1 210405Z 22014KT 04/M03 A2998 RMK A01 T00381029  RH  061%=      5-min Rain = 0
KBO1 210406Z 22014KT 04/M03 A2998 RMK A01 T00411028  RH  061%=      5-min Rain = 0
KBO1 210407Z 22014KT 04/M03 A2998 RMK A01 T00421028  RH  060%=      5-min Rain = 0
KBO1 210408Z 22014KT 04/M03 A2998 RMK A01 T00441028  RH  060%=      5-min Rain = 0
KBO1 210409Z 22014KT 05/M03 A2998 RMK A01 T00451028  RH  059%=      5-min Rain = 0
KBO1 210410Z 21014KT 05/M03 A2998 RMK A01 T00451028  RH  059%=      5-min Rain = 0
KBO1 210411Z 22014KT 05/M03 A2998 RMK A01 T00451027  RH  060%=      5-min Rain = 0
KBO1 210412Z 21014KT 04/M03 A2998 RMK A01 T00441027  RH  060%=      5-min Rain = 0
KBO1 210413Z 21014KT 05/M03 A2998 RMK A01 T00451027  RH  060%=      5-min Rain = 0
KBO1 210414Z 22014KT 05/M03 A2998 RMK A01 T00461027  RH  059%=      5-min Rain = 0
KBO1 210415Z 21015KT 05/M03 A2998 RMK A01 T00461027  RH  059%=      5-min Rain = 0
KBO1 210416Z 21015KT 05/M03 A2998 RMK A01 T00461027  RH  059%=      5-min Rain = 0
KBO1 210417Z 22014KT 05/M03 A2998 RMK A01 T00471027  RH  059%=      5-min Rain = 0
KBO1 210418Z 21015KT 05/M03 A2997 RMK A01 T00471027  RH  059%=      5-min Rain = 0
KBO1 210419Z 21014KT 05/M03 A2997 RMK A01 T00481027  RH  058%=      5-min Rain = 0
KBO1 210420Z 22014KT 05/M03 A2997 RMK A01 T00491027  RH  058%=      5-min Rain = 0
KBO1 210421Z 21015KT 05/M03 A2997 RMK A01 T00501027  RH  057%=      5-min Rain = 0
KBO1 210422Z 22015KT 05/M03 A2997 RMK A01 T00511027  RH  057%=      5-min Rain = 0
KBO1 210423Z 22015KT 05/M03 A2997 RMK A01 T00511028  RH  057%=      5-min Rain = 0
KBO1 210424Z 22016KT 05/M03 A2997 RMK A01 T00501028  RH  057%=      5-min Rain = 0
KBO1 210425Z 22015KT 05/M03 A2997 RMK A01 T00501028  RH  057%=      5-min Rain = 0
KBO1 210426Z 22016KT 05/M03 A2997 RMK A01 T00501028  RH  057%=      5-min Rain = 0
KBO1 210427Z 22016KT 05/M03 A2997 RMK A01 T00501028  RH  057%=      5-min Rain = 0
KBO1 210428Z 22015KT 05/M03 A2997 RMK A01 T00491028  RH  057%=      5-min Rain = 0
KBO1 210429Z 22015KT 05/M03 A2997 RMK A01 T00481029  RH  058%=      5-min Rain = 0
KBO1 210430Z 22015KT 05/M03 A2997 RMK A01 T00471029  RH  058%=      5-min Rain = 0
KBO1 210431Z 22015KT 05/M03 A2997 RMK A01 T00471029  RH  058%=      5-min Rain = 0
KBO1 210432Z 22015KT 05/M03 A2997 RMK A01 T00461029  RH  058%=      5-min Rain = 0
KBO1 210433Z 22015KT 05/M03 A2997 RMK A01 T00451029  RH  059%=      5-min Rain = 0
KBO1 210434Z 22015KT 04/M03 A2997 RMK A01 T00441029  RH  059%=      5-min Rain = 0
KBO1 210435Z 22014KT 04/M03 A2997 RMK A01 T00441029  RH  059%=      5-min Rain = 0
KBO1 210436Z 22015KT 04/M03 A2997 RMK A01 T00441029  RH  059%=      5-min Rain = 0
KBO1 210437Z 22014KT 04/M03 A2997 RMK A01 T00431028  RH  060%=      5-min Rain = 0
KBO1 210438Z 22015KT 04/M03 A2997 RMK A01 T00431028  RH  060%=      5-min Rain = 0
KBO1 210439Z 22015KT 04/M03 A2997 RMK A01 T00421029  RH  060%=      5-min Rain = 0
KBO1 210440Z 22015KT 04/M03 A2997 RMK A01 T00421028  RH  060%=      5-min Rain = 0
KBO1 210441Z 22014KT 04/M03 A2997 RMK A01 T00431028  RH  060%=      5-min Rain = 0
KBO1 210442Z 22015KT 04/M03 A2997 RMK A01 T00431028  RH  060%=      5-min Rain = 0
KBO1 210443Z 22015KT 04/M03 A2997 RMK A01 T00431028  RH  060%=      5-min Rain = 0
KBO1 210444Z 22015KT 04/M03 A2997 RMK A01 T00421028  RH  060%=      5-min Rain = 0
KBO1 210445Z 23014KT 04/M03 A2997 RMK A01 T00421028  RH  060%=      5-min Rain = 0
KBO1 210446Z 23014KT 04/M03 A2997 RMK A01 T00421028  RH  061%=      5-min Rain = 0
KBO1 210447Z 23014KT 04/M03 A2997 RMK A01 T00411028  RH  061%=      5-min Rain = 0
KBO1 210448Z 23014KT 04/M03 A2997 RMK A01 T00401027  RH  061%=      5-min Rain = 0
KBO1 210449Z 23015KT 04/M03 A2997 RMK A01 T00401027  RH  062%=      5-min Rain = 0
KBO1 210450Z 23014KT 04/M03 A2997 RMK A01 T00401027  RH  062%=      5-min Rain = 0
KBO1 210451Z 23014KT 04/M03 A2997 RMK A01 T00401027  RH  062%=      5-min Rain = 0
KBO1 210452Z 23014KT 04/M03 A2997 RMK A01 T00401026  RH  062%=      5-min Rain = 0
KBO1 210453Z 23014KT 04/M03 A2997 RMK A01 T00401026  RH  062%=      5-min Rain = 0
KBO1 210454Z 23015KT 04/M03 A2997 RMK A01 T00411026  RH  062%=      5-min Rain = 0
KBO1 210455Z 23015KT 04/M03 A2997 RMK A01 T00431025  RH  061%=      5-min Rain = 0
KBO1 210456Z 22015KT 05/M03 A2997 RMK A01 T00451025  RH  061%=      5-min Rain = 0
KBO1 210457Z 23016KT 05/M02 A2997 RMK A01 T00471024  RH  060%=      5-min Rain = 0
KBO1 210458Z 22016KT 05/M02 A2997 RMK A01 T00491024  RH  059%=      5-min Rain = 0
KBO1 210459Z 22014KT 05/M02 A2997 RMK A01 T00521024  RH  058%=      5-min Rain = 0
KBO1 210500Z 22014KT 05/M02 A2997 RMK A01 T00541024  RH  057%=      5-min Rain = 0
KBO1 210501Z 22011KT 06/M03 A2997 RMK A01 T00551025  RH  056%=      5-min Rain = 0
KBO1 210502Z 22012KT 05/M03 A2997 RMK A01 T00541026  RH  056%=      5-min Rain = 0
KBO1 210503Z 22011KT 05/M03 A2997 RMK A01 T00541026  RH  056%=      5-min Rain = 0
KBO1 210504Z 22013KT 05/M03 A2997 RMK A01 T00521027  RH  057%=      5-min Rain = 0
KBO1 210505Z 22011KT 05/M03 A2997 RMK A01 T00511027  RH  057%=      5-min Rain = 0
KBO1 210506Z 22013KT 05/M03 A2997 RMK A01 T00501027  RH  057%=      5-min Rain = 0
KBO1 210507Z 22014KT 05/M03 A2997 RMK A01 T00501027  RH  058%=      5-min Rain = 0
KBO1 210508Z 22014KT 05/M03 A2997 RMK A01 T00511026  RH  058%=      5-min Rain = 0
KBO1 210509Z 22013KT 05/M03 A2997 RMK A01 T00511025  RH  058%=      5-min Rain = 0
KBO1 210510Z 22013KT 05/M03 A2997 RMK A01 T00511025  RH  058%=      5-min Rain = 0
KBO1 210511Z 22014KT 05/M03 A2997 RMK A01 T00511025  RH  058%=      5-min Rain = 0
KBO1 210512Z 21014KT 05/M03 A2997 RMK A01 T00511025  RH  058%=      5-min Rain = 0
KBO1 210513Z 21014KT 05/M03 A2997 RMK A01 T00511025  RH  058%=      5-min Rain = 0
KBO1 210514Z 22013KT 05/M03 A2997 RMK A01 T00501025  RH  058%=      5-min Rain = 0
KBO1 210515Z 21014KT 05/M03 A2997 RMK A01 T00501025  RH  058%=      5-min Rain = 0
KBO1 210516Z 21014KT 05/M03 A2997 RMK A01 T00501026  RH  058%=      5-min Rain = 0
KBO1 210517Z 21013KT 05/M03 A2997 RMK A01 T00501026  RH  058%=      5-min Rain = 0
KBO1 210518Z 21014KT 05/M03 A2997 RMK A01 T00501026  RH  058%=      5-min Rain = 0
KBO1 210519Z 21014KT 05/M03 A2997 RMK A01 T00511026  RH  058%=      5-min Rain = 0
KBO1 210520Z 21015KT 05/M03 A2997 RMK A01 T00521026  RH  057%=      5-min Rain = 0
KBO1 210521Z 21014KT 05/M03 A2997 RMK A01 T00511026  RH  057%=      5-min Rain = 0
KBO1 210522Z 21015KT 05/M03 A2997 RMK A01 T00521026  RH  057%=      5-min Rain = 0
KBO1 210523Z 21014KT 05/M03 A2997 RMK A01 T00521026  RH  057%=      5-min Rain = 0
KBO1 210524Z 21014KT 05/M03 A2997 RMK A01 T00521026  RH  057%=      5-min Rain = 0
KBO1 210525Z 21014KT 05/M03 A2997 RMK A01 T00521026  RH  057%=      5-min Rain = 0
KBO1 210526Z 21013KT 05/M03 A2997 RMK A01 T00531026  RH  057%=      5-min Rain = 0
KBO1 210527Z 21013KT 05/M03 A2997 RMK A01 T00541026  RH  056%=      5-min Rain = 0
KBO1 210528Z 21013KT 05/M03 A2997 RMK A01 T00541027  RH  056%=      5-min Rain = 0
KBO1 210529Z 22012KT 06/M03 A2997 RMK A01 T00551026  RH  056%=      5-min Rain = 0
KBO1 210530Z 21012KT 06/M03 A2997 RMK A01 T00551026  RH  056%=      5-min Rain = 0
KBO1 210531Z 21011KT 06/M03 A2997 RMK A01 T00551026  RH  056%=      5-min Rain = 0
KBO1 210532Z 21012KT 05/M03 A2997 RMK A01 T00541026  RH  056%=      5-min Rain = 0
KBO1 210533Z 21011KT 05/M03 A2997 RMK A01 T00541026  RH  056%=      5-min Rain = 0
KBO1 210534Z 21011KT 05/M03 A2997 RMK A01 T00541026  RH  056%=      5-min Rain = 0
KBO1 210535Z 21012KT 05/M03 A2997 RMK A01 T00541026  RH  056%=      5-min Rain = 0
KBO1 210536Z 21012KT 06/M03 A2997 RMK A01 T00551026  RH  056%=      5-min Rain = 0
KBO1 210537Z 21010KT 06/M03 A2997 RMK A01 T00551026  RH  056%=      5-min Rain = 0
KBO1 210538Z 21011KT 05/M03 A2997 RMK A01 T00541025  RH  056%=      5-min Rain = 0
KBO1 210539Z 22012KT 05/M03 A2997 RMK A01 T00541025  RH  057%=      5-min Rain = 0
KBO1 210540Z 21014KT 05/M03 A2997 RMK A01 T00541025  RH  057%=      5-min Rain = 0
KBO1 210541Z 22013KT 06/M03 A2997 RMK A01 T00561025  RH  056%=      5-min Rain = 0
KBO1 210542Z 22014KT 06/M02 A2997 RMK A01 T00571024  RH  056%=      5-min Rain = 0
KBO1 210543Z 22016KT 06/M02 A2996 RMK A01 T00581024  RH  056%=      5-min Rain = 0
KBO1 210544Z 22015KT 06/M02 A2997 RMK A01 T00591024  RH  055%=      5-min Rain = 0
KBO1 210545Z 22015KT 06/M02 A2996 RMK A01 T00601024  RH  055%=      5-min Rain = 0
KBO1 210546Z 22016KT 06/M02 A2996 RMK A01 T00611024  RH  055%=      5-min Rain = 0
KBO1 210547Z 22017KT 06/M02 A2996 RMK A01 T00621024  RH  054%=      5-min Rain = 0
KBO1 210548Z 22018KT 06/M03 A2996 RMK A01 T00621025  RH  054%=      5-min Rain = 0
KBO1 210549Z 22016KT 06/M03 A2996 RMK A01 T00631025  RH  053%=      5-min Rain = 0
KBO1 210550Z 22018KT 06/M03 A2996 RMK A01 T00631025  RH  053%=      5-min Rain = 0
KBO1 210551Z 22018G23KT 06/M03 A2996 RMK A01 T00631026  RH  053%=      5-min Rain = 0
KBO1 210552Z 22018KT 06/M03 A2996 RMK A01 T00641026  RH  053%=      5-min Rain = 0
KBO1 210553Z 22019KT 07/M03 A2996 RMK A01 T00651026  RH  052%=      5-min Rain = 0
KBO1 210554Z 22017KT 07/M03 A2996 RMK A01 T00651026  RH  052%=      5-min Rain = 0
KBO1 210555Z 22019G24KT 06/M03 A2996 RMK A01 T00641026  RH  052%=      5-min Rain = 0
KBO1 210556Z 22018KT 07/M03 A2996 RMK A01 T00651026  RH  052%=      5-min Rain = 0
KBO1 210557Z 22017KT 07/M03 A2996 RMK A01 T00651026  RH  052%=      5-min Rain = 0
KBO1 210558Z 23019KT 06/M03 A2996 RMK A01 T00641027  RH  052%=      5-min Rain = 0
KBO1 210559Z 23018G23KT 07/M03 A2996 RMK A01 T00651027  RH  052%=      5-min Rain = 0

Page generated in 0.138 seconds.